LO374 / SP-LNF 7700 Squawk Report (11th of August, 2019)

Aircraft E195 Reg No. SP-LNF Age N/A
Model Emb-195 Jet engines 2 First flight N/A
Registered 26-02-13 Rollout N/A Delivered 26-02-13
Construction No. 19000596 Line No. N/A Series 200LR
ADSHEX 48ADA5 Airline name LOT Polish Airlines Owner Jetscape Aircraft 1 LLC
Airfield based Warsaw-Okecie~Mazowieckie~SP First tracked 2017-07-13 09:08:00
Time Lat Lon Altitude Heading Speed Vertical Rate
2019-08-11 19:27:13 GMT 52.168854 20.965157 0 357 31 0
2019-08-11 19:27:10 GMT 52.168438 20.965191 0 351 31 0
2019-08-11 19:26:58 GMT 52.166740 20.966269 0 331 49 0
2019-08-11 19:26:55 GMT 52.165421 20.967407 250 333 74 -64
2019-08-11 19:26:48 GMT 52.164322 20.968399 250 332 81 -64
2019-08-11 19:26:38 GMT 52.160480 20.971802 250 332 126 -320
2019-08-11 19:26:27 GMT 52.150795 20.980198 350 332 128 -576
2019-08-11 19:26:20 GMT 52.150795 20.980198 400 332 128 -704
2019-08-11 19:26:17 GMT 52.149765 20.981064 425 332 128 -704
2019-08-11 19:26:12 GMT 52.146702 20.983809 500 333 127 -640
2019-08-11 19:26:07 GMT 52.144272 20.985870 550 332 128 -704
2019-08-11 19:26:02 GMT 52.141438 20.988359 600 332 129 -640
2019-08-11 19:25:57 GMT 52.138924 20.990557 650 332 129 -640
2019-08-11 19:25:51 GMT 52.135849 20.993271 700 332 129 -640
2019-08-11 19:25:47 GMT 52.133560 20.995255 750 332 129 -640
2019-08-11 19:25:36 GMT 52.127937 21.000132 950 332 133 -704
2019-08-11 19:25:29 GMT 52.123901 21.003647 950 332 133 -704
2019-08-11 19:25:25 GMT 52.122074 21.005310 1,000 332 134 -704
2019-08-11 19:25:18 GMT 52.118042 21.008835 1,075 332 139 -768
2019-08-11 19:25:15 GMT 52.116440 21.010254 1,125 332 140 -704
2019-08-11 19:25:11 GMT 52.113274 21.013000 1,175 332 143 -768
2019-08-11 19:25:07 GMT 52.111832 21.014256 1,225 332 148 -704
2019-08-11 19:25:04 GMT 52.110031 21.015854 1,250 332 147 -704
2019-08-11 19:25:00 GMT 52.107269 21.018257 1,300 332 153 -704
2019-08-11 19:24:55 GMT 52.103733 21.021318 1,375 332 159 -896
2019-08-11 19:24:49 GMT 52.100521 21.024143 1,450 332 164 -960
2019-08-11 19:24:46 GMT 52.098751 21.025635 1,475 332 166 -960
2019-08-11 19:24:43 GMT 52.096561 21.027517 1,525 332 169 -960
2019-08-11 19:24:39 GMT 52.093445 21.030266 1,600 332 173 -960
2019-08-11 19:24:36 GMT 52.091442 21.031990 1,650 332 178 -960
2019-08-11 19:24:33 GMT 52.087067 21.035835 1,750 333 183 -1024
2019-08-11 19:24:29 GMT 52.086319 21.036453 1,775 332 183 -1024
2019-08-11 19:24:23 GMT 52.081573 21.040545 1,875 332 188 -960
2019-08-11 19:24:19 GMT 52.076267 21.045095 1,975 333 193 -1024
2019-08-11 19:24:15 GMT 52.075607 21.045685 2,000 333 193 -1024
2019-08-11 19:24:12 GMT 52.073639 21.047440 2,025 333 193 -1024
2019-08-11 19:24:08 GMT 52.070026 21.050432 2,100 333 196 -832
2019-08-11 19:24:05 GMT 52.066864 21.053162 2,150 333 200 -1088
2019-08-11 19:24:02 GMT 52.064861 21.054827 2,200 333 202 -1088
2019-08-11 19:23:56 GMT 52.059586 21.059265 2,325 333 211 -1280
2019-08-11 19:23:52 GMT 52.056427 21.061935 2,400 333 212 -1280
2019-08-11 19:23:49 GMT 52.053177 21.064636 2,475 333 216 -1088
2019-08-11 19:23:44 GMT 52.049267 21.067932 2,650 333 220 -1088
2019-08-11 19:23:41 GMT 52.046986 21.069895 2,600 333 221 -1088
2019-08-11 19:23:37 GMT 52.040001 21.075781 2,725 332 225 -1152
2019-08-11 19:23:31 GMT 52.037659 21.077881 2,775 331 226 -1088
2019-08-11 19:23:27 GMT 52.034275 21.081116 2,850 329 228 -1280
2019-08-11 19:23:20 GMT 52.028179 21.087708 3,000 324 233 -1408
2019-08-11 19:23:17 GMT 52.025711 21.090775 3,075 322 235 -1408
2019-08-11 19:23:10 GMT 52.019707 21.099714 3,275 314 239 -1856
2019-08-11 19:23:07 GMT 52.017426 21.103592 3,375 314 241 -1920
2019-08-11 19:23:02 GMT 52.013626 21.109848 3,500 320 243 -1920
2019-08-11 19:22:57 GMT 52.008114 21.115566 3,700 336 249 -2176
2019-08-11 19:22:54 GMT 52.002045 21.118393 3,925 353 253 -2432
2019-08-11 19:22:50 GMT 52.000294 21.118706 4,000 358 254 -2624
2019-08-11 19:22:47 GMT 51.996918 21.118622 4,125 6 255 -2688
2019-08-11 19:22:42 GMT 51.990658 21.116428 4,500 27 257 -2560
2019-08-11 19:22:39 GMT 51.988468 21.114939 4,500 27 257 -2560
2019-08-11 19:22:36 GMT 51.985069 21.111799 4,575 33 257 -2496
2019-08-11 19:22:29 GMT 51.978424 21.102676 4,875 48 259 -2496
2019-08-11 19:22:26 GMT 51.973991 21.093750 5,125 53 260 -2432
2019-08-11 19:22:19 GMT 51.970459 21.085968 5,325 53 260 -2432
2019-08-11 19:22:12 GMT 51.963192 21.070051 5,650 54 262 -2432
2019-08-11 19:22:08 GMT 51.963192 21.070051 5,725 53 262 -2432
2019-08-11 19:22:04 GMT 51.960258 21.063616 5,875 54 263 -2368
2019-08-11 19:21:58 GMT 51.954071 21.049118 6,400 67 266 -1344
2019-08-11 19:21:49 GMT 51.949814 21.037216 6,400 64 265 -1408
2019-08-11 19:21:45 GMT 51.948441 21.032104 6,450 70 265 -1344
2019-08-11 19:21:42 GMT 51.946712 21.020847 6,575 81 266 -1408
2019-08-11 19:21:38 GMT 51.946472 21.018066 6,625 86 265 -1472
2019-08-11 19:21:35 GMT 51.946293 21.012295 6,675 91 265 -1536
2019-08-11 19:21:27 GMT 51.947735 20.996599 6,925 109 261 -1472
2019-08-11 19:21:24 GMT 51.948669 20.991898 6,925 108 262 -1472
2019-08-11 19:21:19 GMT 51.951462 20.980225 7,100 111 262 -1344
2019-08-11 19:21:14 GMT 51.954437 20.968035 7,150 111 262 -1344
2019-08-11 19:21:07 GMT 51.956268 20.960388 7,325 111 263 -1024
2019-08-11 19:21:04 GMT 51.957466 20.955400 7,350 110 264 -1024
2019-08-11 19:20:58 GMT 51.960388 20.942535 7,475 108 265 -1088
2019-08-11 19:20:54 GMT 51.961716 20.935974 7,525 107 265 -960
2019-08-11 19:20:47 GMT 51.963547 20.923157 7,625 95 269 -832
2019-08-11 19:20:43 GMT 51.963821 20.913773 7,675 92 270 -896
2019-08-11 19:20:38 GMT 51.962818 20.897959 7,825 82 274 -1024
2019-08-11 19:20:31 GMT 51.961796 20.884773 7,950 82 276 -1024
2019-08-11 19:20:25 GMT 51.961048 20.875750 8,000 82 277 -960
2019-08-11 19:20:17 GMT 51.959187 20.852678 8,200 81 277 -1024
2019-08-11 19:20:13 GMT 51.959187 20.852678 8,200 81 278 -1088
2019-08-11 19:20:07 GMT 51.957870 20.840530 8,300 77 278 -896
2019-08-11 19:20:02 GMT 51.956177 20.830460 8,375 71 279 -960
2019-08-11 19:19:57 GMT 51.950203 20.813286 8,500 53 279 -1024
2019-08-11 19:19:52 GMT 51.950203 20.813286 8,525 50 279 -1024
2019-08-11 19:19:46 GMT 51.944477 20.803867 8,625 38 278 -960
2019-08-11 19:19:42 GMT 51.940018 20.798798 8,675 30 277 -960
2019-08-11 19:19:34 GMT 51.930679 20.792313 8,825 15 275 -960
2019-08-11 19:19:31 GMT 51.927811 20.791233 8,875 9 274 -960
2019-08-11 19:19:24 GMT 51.917381 20.790371 9,000 355 271 -896
2019-08-11 19:19:21 GMT 51.910767 20.792389 9,050 342 270 -1024
2019-08-11 19:19:15 GMT 51.907654 20.793901 9,150 343 270 -1024
2019-08-11 19:19:11 GMT 51.902489 20.796648 9,175 342 270 -1024
2019-08-11 19:19:05 GMT 51.895691 20.800259 9,300 342 271 -1024
2019-08-11 19:19:01 GMT 51.890430 20.802994 9,350 342 271 -1024
2019-08-11 19:18:58 GMT 51.886238 20.805206 9,450 342 270 -1024
2019-08-11 19:18:55 GMT 51.883308 20.806808 9,525 342 270 -1024
2019-08-11 19:18:50 GMT 51.878605 20.809250 9,550 342 270 -1024
2019-08-11 19:18:44 GMT 51.870972 20.813370 9,750 342 270 -1024
2019-08-11 19:18:40 GMT 51.866043 20.816048 9,725 342 270 -1024
2019-08-11 19:18:35 GMT 51.858582 20.820131 9,825 342 269 -1088
2019-08-11 19:18:32 GMT 51.855698 20.821690 9,875 342 269 -1024
2019-08-11 19:18:29 GMT 51.853317 20.823027 9,900 342 269 -1088
2019-08-11 19:18:21 GMT 51.843384 20.828445 10,050 342 270 -1024
2019-08-11 19:18:18 GMT 51.839687 20.830460 10,100 342 271 -1088
2019-08-11 19:18:13 GMT 51.833817 20.833641 10,225 342 271 -1088
2019-08-11 19:18:10 GMT 51.828468 20.836563 10,225 342 271 -1088
2019-08-11 19:18:06 GMT 51.826126 20.837797 10,300 342 272 -1024
2019-08-11 19:18:03 GMT 51.822418 20.839876 10,350 342 272 -1024
2019-08-11 19:18:00 GMT 51.818787 20.841827 10,400 342 272 -1088
2019-08-11 19:17:57 GMT 51.813995 20.844479 10,475 342 272 -1088
2019-08-11 19:17:52 GMT 51.809143 20.847076 10,550 342 272 -1088
2019-08-11 19:17:49 GMT 51.806076 20.848770 10,600 342 272 -1088
2019-08-11 19:17:45 GMT 51.801315 20.851160 10,675 345 274 -1536
2019-08-11 19:17:41 GMT 51.795368 20.853729 10,800 349 275 -1600
2019-08-11 19:17:38 GMT 51.791611 20.854872 10,900 355 278 -1472
2019-08-11 19:17:33 GMT 51.784836 20.855688 11,025 1 281 -1408
2019-08-11 19:17:27 GMT 51.777512 20.855021 11,150 7 283 -1408
2019-08-11 19:17:22 GMT 51.770966 20.853016 11,375 13 286 -1472
2019-08-11 19:17:16 GMT 51.760391 20.846781 11,475 26 292 -1472
2019-08-11 19:17:11 GMT 51.758011 20.844776 11,475 42 298 -1600
2019-08-11 19:17:08 GMT 51.754032 20.840912 11,600 34 295 -1536
2019-08-11 19:17:01 GMT 51.747280 20.832138 11,875 48 300 -1536
2019-08-11 19:16:57 GMT 51.743637 20.825994 11,875 48 300 -1536
2019-08-11 19:16:54 GMT 51.740299 20.819168 11,975 55 302 -1408
2019-08-11 19:16:51 GMT 51.738373 20.814489 12,025 60 304 -1344
2019-08-11 19:16:47 GMT 51.734760 20.802231 12,150 71 306 -1280
2019-08-11 19:16:43 GMT 51.733566 20.796600 12,150 73 306 -1280
2019-08-11 19:16:37 GMT 51.731506 20.784351 12,325 75 308 -1216
2019-08-11 19:16:32 GMT 51.729404 20.771255 12,425 75 309 -1280
2019-08-11 19:16:29 GMT 51.728806 20.767426 12,925 75 313 -1152
2019-08-11 19:16:26 GMT 51.724365 20.739441 12,575 75 311 -1280
2019-08-11 19:16:20 GMT 51.724365 20.739441 12,725 75 312 -1216
2019-08-11 19:16:16 GMT 51.722424 20.727158 12,900 75 317 -1408
2019-08-11 19:16:12 GMT 51.722424 20.727158 12,850 75 317 -1408
2019-08-11 19:16:09 GMT 51.721584 20.722122 12,875 75 314 -1216
2019-08-11 19:16:04 GMT 51.719513 20.708933 13,000 75 317 -1408
2019-08-11 19:16:01 GMT 51.718552 20.703068 13,075 75 317 -1408
2019-08-11 19:15:52 GMT 51.713997 20.674286 13,375 75 318 -1472
2019-08-11 19:15:44 GMT 51.712505 20.665054 13,475 75 318 -1536
2019-08-11 19:15:41 GMT 51.710785 20.654373 13,575 75 319 -1408
2019-08-11 19:15:38 GMT 51.708828 20.642395 13,700 75 319 -1280
2019-08-11 19:15:35 GMT 51.708618 20.641008 13,700 75 319 -1280
2019-08-11 19:15:29 GMT 51.706596 20.628433 13,875 75 321 -1088
2019-08-11 19:15:24 GMT 51.703613 20.609970 13,925 75 325 -704
2019-08-11 19:15:19 GMT 51.703262 20.607605 13,950 75 325 -704
2019-08-11 19:15:13 GMT 51.700638 20.591202 14,025 75 347 -1536
2019-08-11 19:15:09 GMT 51.698307 20.576782 14,025 75 336 -384
2019-08-11 19:15:03 GMT 51.696865 20.567932 14,125 75 360 -1600
2019-08-11 19:14:58 GMT 51.694817 20.555191 14,150 75 343 -832
2019-08-11 19:14:53 GMT 51.690720 20.529480 15,150 75 360 -1600
2019-08-11 19:14:49 GMT 51.690720 20.529480 14,325 75 351 -1600
2019-08-11 19:14:45 GMT 51.689697 20.523148 14,400 75 348 -1600
2019-08-11 19:14:42 GMT 51.688580 20.516129 14,575 75 349 -1536
2019-08-11 19:14:38 GMT 51.687057 20.506872 14,550 75 350 -1600
2019-08-11 19:14:32 GMT 51.684250 20.489349 14,725 75 351 -1600
2019-08-11 19:14:27 GMT 51.681152 20.470499 14,925 75 353 -1600
2019-08-11 19:14:24 GMT 51.680759 20.468063 14,950 75 353 -1600
2019-08-11 19:14:21 GMT 51.679966 20.462952 15,000 75 353 -1600
2019-08-11 19:14:18 GMT 51.678360 20.453278 15,125 75 354 -1600
2019-08-11 19:14:15 GMT 51.677307 20.446671 15,175 75 355 -1600
2019-08-11 19:14:11 GMT 51.675522 20.435905 15,275 75 356 -1600
2019-08-11 19:14:07 GMT 51.674149 20.427296 15,350 75 356 -1536
2019-08-11 19:14:04 GMT 51.672821 20.419056 15,450 75 358 -1600
2019-08-11 19:14:00 GMT 51.671215 20.409393 15,550 75 359 -1600
2019-08-11 19:13:57 GMT 51.669479 20.398716 15,675 75 360 -1600
2019-08-11 19:13:53 GMT 51.668289 20.391218 15,750 75 360 -1600
2019-08-11 19:13:49 GMT 51.666698 20.381546 15,900 75 362 -1600
2019-08-11 19:13:44 GMT 51.662975 20.358505 16,100 75 363 -1664
2019-08-11 19:13:39 GMT 51.662323 20.354462 18,550 75 394 -1792
2019-08-11 19:13:36 GMT 51.660873 20.345419 16,450 75 365 -1664
2019-08-11 19:13:33 GMT 51.659592 20.337772 16,300 75 366 -1600
2019-08-11 19:13:29 GMT 51.656067 20.316095 16,450 75 367 -1664
2019-08-11 19:13:24 GMT 51.656067 20.316095 16,525 75 367 -1664
2019-08-11 19:13:21 GMT 51.654648 20.307337 16,925 75 372 -1664
2019-08-11 19:13:18 GMT 51.653526 20.300446 17,050 75 371 -1664
2019-08-11 19:13:12 GMT 51.650436 20.281652 16,875 75 372 -1664
2019-08-11 19:13:08 GMT 51.648926 20.272299 17,450 75 381 -1728
2019-08-11 19:13:05 GMT 51.647194 20.261917 17,075 75 372 -1664
2019-08-11 19:12:57 GMT 51.644402 20.244675 17,300 75 374 -1664
2019-08-11 19:12:53 GMT 51.642490 20.233154 17,375 75 375 -1664
2019-08-11 19:12:47 GMT 51.639908 20.217367 17,650 75 377 -1664
2019-08-11 19:12:42 GMT 51.637711 20.204229 17,675 75 377 -1728
2019-08-11 19:12:39 GMT 51.636292 20.195543 17,750 75 378 -1664
2019-08-11 19:12:33 GMT 51.631851 20.168524 18,050 75 380 -1664
2019-08-11 19:12:26 GMT 51.630432 20.159986 18,200 75 381 -1728
2019-08-11 19:12:23 GMT 51.628899 20.150681 18,225 75 382 -1728
2019-08-11 19:12:16 GMT 51.625778 20.131683 18,750 75 392 -1792
2019-08-11 19:12:12 GMT 51.623962 20.120697 18,525 75 384 -1664
2019-08-11 19:12:06 GMT 51.621033 20.102921 18,700 75 385 -1728
2019-08-11 19:12:02 GMT 51.619354 20.093002 18,800 75 385 -1728
2019-08-11 19:11:57 GMT 51.617294 20.080484 18,925 75 388 -1728
2019-08-11 19:11:54 GMT 51.615417 20.069201 19,050 75 388 -1728
2019-08-11 19:11:51 GMT 51.614235 20.061951 19,125 75 389 -1728
2019-08-11 19:11:44 GMT 51.611298 20.044407 19,575 75 390 -1728
2019-08-11 19:11:40 GMT 51.609440 20.033035 19,425 75 391 -1728
2019-08-11 19:11:34 GMT 51.606262 20.014046 19,600 75 392 -1792
2019-08-11 19:11:31 GMT 51.604877 20.005646 19,700 74 393 -1792
2019-08-11 19:11:23 GMT 51.601456 19.985096 19,925 75 394 -1792
2019-08-11 19:11:20 GMT 51.599850 19.975586 20,025 75 395 -1792
2019-08-11 19:11:13 GMT 51.596592 19.956131 20,225 74 396 -1792
2019-08-11 19:11:07 GMT 51.592216 19.929733 20,500 75 398 -1792
2019-08-11 19:11:02 GMT 51.591236 19.924088 20,550 74 401 -1792
2019-08-11 19:10:58 GMT 51.589607 19.914169 20,650 75 399 -1792
2019-08-11 19:10:52 GMT 51.584908 19.886169 20,900 74 400 -1792
2019-08-11 19:10:49 GMT 51.584908 19.886169 20,950 74 401 -1792
2019-08-11 19:10:42 GMT 51.581650 19.866562 21,250 74 402 -1792
2019-08-11 19:10:39 GMT 51.579971 19.856567 21,250 74 404 -1792
2019-08-11 19:10:32 GMT 51.576622 19.836807 21,550 74 405 -1792
2019-08-11 19:10:28 GMT 51.574852 19.826279 21,575 74 406 -1856
2019-08-11 19:10:21 GMT 51.571426 19.805826 21,850 74 408 -1856
2019-08-11 19:10:18 GMT 51.569733 19.795761 21,900 74 409 -1856
2019-08-11 19:10:10 GMT 51.565636 19.771500 22,150 74 411 -1856
2019-08-11 19:10:07 GMT 51.564377 19.764175 22,225 74 412 -1856
2019-08-11 19:10:02 GMT 51.560532 19.741171 22,400 74 413 -1856
2019-08-11 19:09:56 GMT 51.557346 19.722519 23,250 74 418 -1856
2019-08-11 19:09:50 GMT 51.556000 19.714355 23,000 74 416 -1856
2019-08-11 19:09:46 GMT 51.553940 19.702272 22,850 74 416 -1856
2019-08-11 19:09:40 GMT 51.547577 19.664860 23,275 74 420 -1856
2019-08-11 19:09:33 GMT 51.547577 19.664860 23,225 74 419 -1856
2019-08-11 19:09:28 GMT 51.545013 19.649658 23,400 74 421 -1920
2019-08-11 19:09:24 GMT 51.543091 19.638285 23,600 74 421 -1920
2019-08-11 19:09:17 GMT 51.539200 19.615421 23,900 74 425 -1856
2019-08-11 19:09:14 GMT 51.537704 19.606552 23,825 74 425 -1856
2019-08-11 19:09:06 GMT 51.533798 19.583723 24,050 74 426 -1536
2019-08-11 19:09:03 GMT 51.531883 19.572372 24,150 74 428 -1536
2019-08-11 19:08:57 GMT 51.529091 19.556274 24,275 74 431 -1536
2019-08-11 19:08:52 GMT 51.526245 19.539408 24,950 74 433 -1536
2019-08-11 19:08:45 GMT 51.520897 19.508133 24,650 74 437 -1536
2019-08-11 19:08:42 GMT 51.520897 19.508133 24,650 74 438 -1536
2019-08-11 19:08:36 GMT 51.517044 19.485960 24,850 74 443 -1600
2019-08-11 19:08:31 GMT 51.513496 19.465103 25,025 74 443 -1600
2019-08-11 19:08:25 GMT 51.511826 19.455378 25,100 74 453 -1664
2019-08-11 19:08:22 GMT 51.509903 19.444317 35,000 74 454 -1856
2019-08-11 19:08:14 GMT 51.505116 19.416275 25,425 74 451 -1600
2019-08-11 19:08:11 GMT 51.503765 19.408722 25,500 74 452 -1664
2019-08-11 19:08:06 GMT 51.500748 19.391092 25,650 74 455 -1984
2019-08-11 19:08:03 GMT 51.499390 19.383163 25,675 74 455 -2048
2019-08-11 19:08:00 GMT 51.497993 19.375000 25,825 74 456 -2176
2019-08-11 19:07:56 GMT 51.494980 19.357761 26,025 74 457 -2240
2019-08-11 19:07:52 GMT 51.493011 19.346313 26,150 74 458 -2304
2019-08-11 19:07:48 GMT 51.489384 19.325485 26,400 74 459 -2304
2019-08-11 19:07:42 GMT 51.486923 19.311367 26,575 74 463 -2304
2019-08-11 19:07:39 GMT 51.485474 19.302902 26,650 74 461 -2304
2019-08-11 19:07:36 GMT 51.483841 19.293594 26,775 74 462 -2304
2019-08-11 19:07:33 GMT 51.482437 19.285683 26,850 74 463 -2304
2019-08-11 19:07:28 GMT 51.479874 19.270836 27,050 74 464 -2304
2019-08-11 19:07:25 GMT 51.477081 19.254950 27,200 74 465 -2368
2019-08-11 19:07:20 GMT 51.472870 19.230825 27,500 74 467 -2368
2019-08-11 19:07:15 GMT 51.471725 19.224367 27,575 74 467 -2368
2019-08-11 19:07:11 GMT 51.469803 19.213381 27,750 74 467 -2304
2019-08-11 19:07:06 GMT 51.466049 19.192150 27,950 74 469 -2368
2019-08-11 19:07:01 GMT 51.463943 19.180199 28,100 74 470 -2304
2019-08-11 19:06:53 GMT 51.459366 19.154812 28,500 74 472 -2304
2019-08-11 19:06:50 GMT 51.453140 19.119923 28,825 75 477 -2368
2019-08-11 19:06:44 GMT 51.453140 19.119923 28,800 74 474 -2368
2019-08-11 19:06:40 GMT 51.451164 19.108200 28,925 75 475 -2368
2019-08-11 19:06:37 GMT 51.448463 19.091873 29,100 75 475 -2368
2019-08-11 19:06:32 GMT 51.447144 19.083326 29,325 75 477 -2368
2019-08-11 19:06:29 GMT 51.445541 19.073380 36,000 75 476 -2368
2019-08-11 19:06:24 GMT 51.442039 19.050980 29,625 75 477 -2368
2019-08-11 19:06:19 GMT 51.439865 19.037081 36,000 75 477 -2368
2019-08-11 19:06:12 GMT 51.436386 19.015106 30,525 75 479 -2368
2019-08-11 19:06:09 GMT 51.431053 18.981476 30,275 75 480 -2368
2019-08-11 19:06:03 GMT 51.431053 18.981476 30,700 75 480 -2368
2019-08-11 19:06:00 GMT 51.428909 18.967819 30,725 75 480 -2368
2019-08-11 19:05:56 GMT 51.427643 18.960028 30,625 75 481 -2368
2019-08-11 19:05:52 GMT 51.425217 18.944588 30,900 75 481 -2432
2019-08-11 19:05:47 GMT 51.422672 18.928604 30,925 75 482 -2432
2019-08-11 19:05:42 GMT 51.419369 18.907928 31,225 75 483 -2368
2019-08-11 19:05:38 GMT 51.416946 18.892822 31,500 75 485 -2432
2019-08-11 19:05:31 GMT 51.413727 18.872433 33,675 75 493 -2432
2019-08-11 19:05:28 GMT 51.411804 18.860481 31,850 75 486 -2432
2019-08-11 19:05:17 GMT 51.401321 18.794786 32,350 75 488 -2432
2019-08-11 19:05:09 GMT 51.401321 18.794786 32,475 75 489 -2432
2019-08-11 19:05:06 GMT 51.399445 18.782883 32,675 75 491 -2432
2019-08-11 19:04:59 GMT 51.395813 18.760223 32,925 75 490 -2496
2019-08-11 19:04:55 GMT 51.390411 18.726578 33,425 75 491 -2432
2019-08-11 19:04:50 GMT 51.390411 18.726578 33,375 75 492 -2432
2019-08-11 19:04:47 GMT 51.389294 18.719635 33,400 75 492 -2432
2019-08-11 19:04:44 GMT 51.387360 18.707563 33,600 75 494 -2432
2019-08-11 19:04:39 GMT 51.383789 18.685444 33,800 75 493 -2432
2019-08-11 19:04:34 GMT 51.382030 18.674698 34,000 75 494 -2432
2019-08-11 19:04:31 GMT 51.380264 18.663692 34,050 75 494 -2432
2019-08-11 19:04:28 GMT 51.378170 18.650589 34,200 75 495 -2432
2019-08-11 19:04:24 GMT 51.375275 18.632664 34,400 75 496 -2432
2019-08-11 19:04:16 GMT 51.371613 18.610023 34,675 75 497 -2304
2019-08-11 19:04:13 GMT 51.369930 18.599472 34,775 75 497 -2304
2019-08-11 19:04:10 GMT 51.366302 18.577139 34,900 75 497 -896
2019-08-11 19:04:07 GMT 51.366302 18.577139 34,925 75 497 -1088
2019-08-11 19:04:02 GMT 51.361828 18.549652 35,000 75 497 0
2019-08-11 19:03:59 GMT 51.361828 18.549652 35,000 75 497 -64
2019-08-11 19:03:56 GMT 51.360168 18.539206 35,000 75 497 0
2019-08-11 19:03:53 GMT 51.358383 18.528214 35,000 75 497 -64
2019-08-11 19:03:50 GMT 51.351727 18.487320 35,000 75 498 -64
2019-08-11 19:03:42 GMT 51.351727 18.487320 35,000 75 497 64
2019-08-11 19:03:39 GMT 51.350052 18.477097 35,000 75 498 0
2019-08-11 19:03:35 GMT 51.347626 18.462301 35,000 75 498 0
2019-08-11 19:03:32 GMT 51.345520 18.449310 35,000 75 498 0
2019-08-11 19:03:25 GMT 51.341812 18.426893 35,000 75 498 0
2019-08-11 19:03:21 GMT 51.339577 18.413010 35,000 74 498 64
2019-08-11 19:03:17 GMT 51.335312 18.387106 35,000 75 498 -64
2019-08-11 19:03:14 GMT 51.335312 18.387106 35,000 75 498 -64
2019-08-11 19:03:10 GMT 51.332886 18.372334 35,000 75 498 0
2019-08-11 19:03:07 GMT 51.330963 18.360596 35,000 75 498 64
2019-08-11 19:03:04 GMT 51.328949 18.348356 35,000 75 498 64
2019-08-11 19:03:00 GMT 51.327240 18.337936 35,000 75 498 64
2019-08-11 19:02:57 GMT 51.325752 18.328934 35,000 75 498 64
2019-08-11 19:02:54 GMT 51.324051 18.318663 35,000 75 498 64
2019-08-11 19:02:50 GMT 51.321560 18.303452 35,000 75 498 64
2019-08-11 19:02:47 GMT 51.319794 18.292618 35,000 75 497 0
2019-08-11 19:02:43 GMT 51.317001 18.275682 35,000 75 498 0
2019-08-11 19:02:39 GMT 51.313477 18.254377 35,000 75 497 0
2019-08-11 19:02:31 GMT 51.310684 18.237602 35,000 75 497 0
2019-08-11 19:02:28 GMT 51.306850 18.214417 35,000 75 497 0
2019-08-11 19:02:20 GMT 51.301636 18.183060 35,000 75 497 0
2019-08-11 19:02:16 GMT 51.301636 18.183060 35,000 75 497 0
2019-08-11 19:02:13 GMT 51.299423 18.169531 35,000 75 496 0
2019-08-11 19:02:10 GMT 51.297958 18.160706 35,000 75 496 0
2019-08-11 19:02:07 GMT 51.296005 18.149033 35,000 75 496 0
2019-08-11 19:02:03 GMT 51.293907 18.136597 36,000 75 497 64
2019-08-11 19:02:00 GMT 51.291962 18.124620 35,000 75 496 0
2019-08-11 19:01:55 GMT 51.287720 18.099365 35,000 75 495 0
2019-08-11 19:01:52 GMT 51.287720 18.099365 35,000 75 496 0
2019-08-11 19:01:49 GMT 51.285965 18.088766 35,000 75 496 0
2019-08-11 19:01:46 GMT 51.283447 18.073624 35,000 75 495 0
2019-08-11 19:01:41 GMT 51.281155 18.059921 35,000 75 496 0
2019-08-11 19:01:38 GMT 51.279011 18.047256 35,000 75 497 64
2019-08-11 19:01:33 GMT 51.275757 18.027897 35,000 75 497 64
2019-08-11 19:01:29 GMT 51.270447 17.995987 35,000 75 497 64
2019-08-11 19:01:24 GMT 51.270447 17.995987 35,000 75 497 64
2019-08-11 19:01:18 GMT 51.265697 17.967758 35,000 74 497 0
2019-08-11 19:01:11 GMT 51.263168 17.952700 35,000 74 497 0
2019-08-11 19:01:08 GMT 51.261646 17.943802 35,000 74 497 64
2019-08-11 19:01:04 GMT 51.258728 17.926273 35,000 75 498 -64
2019-08-11 19:00:58 GMT 51.255505 17.907104 35,000 75 498 0
2019-08-11 19:00:55 GMT 51.253418 17.894873 35,000 75 498 0
2019-08-11 19:00:51 GMT 51.251129 17.881165 35,000 74 497 0
2019-08-11 19:00:48 GMT 51.249268 17.870178 35,000 74 498 -64
2019-08-11 19:00:41 GMT 51.244995 17.844915 35,000 74 498 0
2019-08-11 19:00:38 GMT 51.243164 17.834150 35,000 74 498 0
2019-08-11 19:00:31 GMT 51.239548 17.812698 35,000 74 498 0
2019-08-11 19:00:27 GMT 51.237167 17.798594 35,000 74 498 64
2019-08-11 19:00:21 GMT 51.233345 17.776337 35,000 74 498 0
2019-08-11 19:00:18 GMT 51.230968 17.762375 35,000 74 498 0
2019-08-11 19:00:14 GMT 51.226730 17.737278 35,000 74 496 64
2019-08-11 19:00:05 GMT 51.223892 17.720873 35,000 74 497 0
2019-08-11 19:00:01 GMT 51.220734 17.702314 35,000 74 497 64
2019-08-11 18:59:58 GMT 51.218914 17.691650 35,000 74 497 0
2019-08-11 18:59:55 GMT 51.217705 17.684555 35,000 74 497 0
2019-08-11 18:59:52 GMT 51.215378 17.670916 35,000 74 497 0
2019-08-11 18:59:44 GMT 51.208649 17.631573 35,000 74 496 64
2019-08-11 18:59:41 GMT 51.208649 17.631573 35,000 74 496 0
2019-08-11 18:59:37 GMT 51.205227 17.611542 35,000 74 496 0
2019-08-11 18:59:31 GMT 51.202377 17.594976 35,000 74 496 64
2019-08-11 18:59:27 GMT 51.200500 17.583988 35,000 74 496 0
2019-08-11 18:59:23 GMT 51.198429 17.571869 35,000 74 496 -64
2019-08-11 18:59:20 GMT 51.195683 17.556000 35,000 74 496 -64
2019-08-11 18:59:16 GMT 51.192333 17.536469 35,000 74 495 64
2019-08-11 18:59:10 GMT 51.189789 17.521709 35,000 74 495 -64
2019-08-11 18:59:07 GMT 51.188423 17.513962 35,000 74 495 -64
2019-08-11 18:59:04 GMT 51.187180 17.506639 35,000 74 495 -64
2019-08-11 18:59:01 GMT 51.184891 17.493502 35,000 74 495 -64
2019-08-11 18:58:55 GMT 51.180416 17.467346 36,000 74 495 0
2019-08-11 18:58:51 GMT 51.178505 17.456512 35,000 74 495 -64
2019-08-11 18:58:44 GMT 51.174828 17.435303 35,000 74 497 64
2019-08-11 18:58:41 GMT 51.172920 17.424164 35,000 74 497 0
2019-08-11 18:58:37 GMT 51.168777 17.400208 35,000 74 496 0
2019-08-11 18:58:34 GMT 51.168777 17.400208 35,000 74 496 0
2019-08-11 18:58:31 GMT 51.166992 17.389948 35,000 74 496 0
2019-08-11 18:58:28 GMT 51.164307 17.374573 35,000 74 496 0
2019-08-11 18:58:25 GMT 51.162865 17.366257 35,000 74 497 64
2019-08-11 18:58:20 GMT 51.160397 17.351990 35,000 74 497 0
2019-08-11 18:58:17 GMT 51.157978 17.338333 35,000 74 497 0
2019-08-11 18:58:14 GMT 51.156254 17.328262 35,000 74 497 0
2019-08-11 18:58:10 GMT 51.153831 17.314301 35,000 74 497 0
2019-08-11 18:58:07 GMT 51.152111 17.304459 35,000 74 497 0
2019-08-11 18:58:04 GMT 51.150238 17.293818 35,000 74 497 64
2019-08-11 18:57:59 GMT 51.145111 17.264421 35,000 74 497 64
2019-08-11 18:57:53 GMT 51.143452 17.255096 35,000 74 497 0
2019-08-11 18:57:50 GMT 51.138287 17.225494 35,000 74 497 0
2019-08-11 18:57:46 GMT 51.137028 17.218475 35,000 74 497 0
2019-08-11 18:57:43 GMT 51.133759 17.199692 36,000 74 497 0
2019-08-11 18:57:37 GMT 51.133759 17.199692 35,000 74 497 64
2019-08-11 18:57:33 GMT 51.128220 17.168365 35,000 74 497 -64
2019-08-11 18:57:28 GMT 51.128220 17.168365 35,000 74 497 0
2019-08-11 18:57:24 GMT 51.125748 17.154112 35,000 74 495 0
2019-08-11 18:57:21 GMT 51.123825 17.143349 35,000 74 496 64
2019-08-11 18:57:18 GMT 51.121944 17.132721 35,000 74 496 64
2019-08-11 18:57:14 GMT 51.118919 17.115479 35,000 74 496 64
2019-08-11 18:57:08 GMT 51.115242 17.094727 35,000 74 496 -64
2019-08-11 18:57:03 GMT 51.112217 17.077484 35,000 74 496 0
2019-08-11 18:57:00 GMT 51.110958 17.070541 35,000 74 496 0
2019-08-11 18:56:57 GMT 51.108856 17.058500 35,000 74 496 0
2019-08-11 18:56:54 GMT 51.104965 17.036530 35,000 74 495 -64
2019-08-11 18:56:51 GMT 51.104965 17.036530 35,000 74 496 0
2019-08-11 18:56:48 GMT 51.103092 17.025833 35,000 74 495 -64
2019-08-11 18:56:42 GMT 51.099785 17.007217 35,000 74 495 0
2019-08-11 18:56:37 GMT 51.096062 16.986389 35,000 74 495 0
2019-08-11 18:56:33 GMT 51.093689 16.972809 35,000 74 497 -64
2019-08-11 18:56:28 GMT 51.090683 16.956137 35,000 74 496 0
2019-08-11 18:56:25 GMT 51.088894 16.945877 35,000 74 496 -64
2019-08-11 18:56:22 GMT 51.087078 16.935730 35,000 74 496 0
2019-08-11 18:56:18 GMT 51.084656 16.922226 35,000 74 496 -64
2019-08-11 18:56:15 GMT 51.082260 16.908850 35,000 74 496 0
2019-08-11 18:56:12 GMT 51.080093 16.896744 35,000 74 497 0
2019-08-11 18:56:07 GMT 51.077579 16.882629 35,000 74 497 -64
2019-08-11 18:56:04 GMT 51.075714 16.872253 35,000 74 498 0
2019-08-11 18:56:01 GMT 51.073471 16.859560 35,000 74 497 -64
2019-08-11 18:55:56 GMT 51.069107 16.835175 35,000 74 497 64
2019-08-11 18:55:53 GMT 51.069107 16.835175 35,000 74 498 0
2019-08-11 18:55:50 GMT 51.066971 16.823408 35,000 74 498 0
2019-08-11 18:55:47 GMT 51.062496 16.798401 35,000 74 497 64
2019-08-11 18:55:40 GMT 51.060680 16.788483 35,000 74 499 0
2019-08-11 18:55:36 GMT 51.058216 16.774597 35,000 74 499 0
2019-08-11 18:55:33 GMT 51.056580 16.765581 35,000 74 498 0
2019-08-11 18:55:30 GMT 51.054245 16.752518 35,000 74 499 0
2019-08-11 18:55:26 GMT 51.049557 16.726456 35,000 74 499 0
2019-08-11 18:55:22 GMT 51.049557 16.726456 35,000 74 499 0
2019-08-11 18:55:19 GMT 51.047089 16.712875 35,000 74 499 0
2019-08-11 18:55:16 GMT 51.045460 16.703949 35,000 74 499 0
2019-08-11 18:55:12 GMT 51.042389 16.686895 35,000 73 499 0
2019-08-11 18:55:08 GMT 51.040375 16.675760 35,000 73 499 0
2019-08-11 18:55:05 GMT 51.038429 16.664810 35,000 73 499 64
2019-08-11 18:55:02 GMT 51.036530 16.654531 35,000 73 499 0
2019-08-11 18:54:59 GMT 51.033821 16.639328 35,000 73 499 0
2019-08-11 18:54:54 GMT 51.029160 16.613705 35,000 73 499 64
2019-08-11 18:54:51 GMT 51.029160 16.613705 35,000 73 499 0
2019-08-11 18:54:48 GMT 51.027603 16.605167 35,000 73 499 0
2019-08-11 18:54:43 GMT 51.024139 16.586075 35,000 73 498 0
2019-08-11 18:54:40 GMT 51.022137 16.575012 35,000 73 498 0
2019-08-11 18:54:37 GMT 51.020836 16.567764 35,000 73 497 64
2019-08-11 18:54:32 GMT 51.015564 16.538877 35,000 73 497 64
2019-08-11 18:54:29 GMT 51.015564 16.538877 35,000 73 497 0
2019-08-11 18:54:25 GMT 51.013275 16.526333 35,000 73 497 0
2019-08-11 18:54:22 GMT 51.010712 16.512228 35,000 73 495 0
2019-08-11 18:54:19 GMT 51.008514 16.500130 35,000 73 496 0
2019-08-11 18:54:16 GMT 51.005520 16.483841 35,000 73 496 64
2019-08-11 18:54:09 GMT 51.002884 16.469397 35,000 73 495 0
2019-08-11 18:54:06 GMT 51.001144 16.459894 35,000 73 495 0
2019-08-11 18:54:03 GMT 50.998955 16.447906 35,000 73 495 0
2019-08-11 18:53:59 GMT 50.996017 16.431835 35,000 73 495 0
2019-08-11 18:53:54 GMT 50.991272 16.405869 35,000 73 494 0
2019-08-11 18:53:51 GMT 50.991272 16.405869 35,000 73 494 0
2019-08-11 18:53:48 GMT 50.988945 16.393204 35,000 73 494 0
2019-08-11 18:53:44 GMT 50.986816 16.381580 35,000 73 494 0
2019-08-11 18:53:41 GMT 50.985260 16.373117 35,000 73 495 0
2019-08-11 18:53:37 GMT 50.982384 16.357574 35,000 73 495 -64
2019-08-11 18:53:34 GMT 50.979675 16.342684 35,000 73 495 -64
2019-08-11 18:53:31 GMT 50.978577 16.336893 36,000 73 497 -64
2019-08-11 18:53:27 GMT 50.976238 16.324081 35,000 73 495 0
2019-08-11 18:53:24 GMT 50.974377 16.314011 35,000 73 495 0
2019-08-11 18:53:17 GMT 50.969925 16.289904 35,000 73 495 64
2019-08-11 18:53:14 GMT 50.967590 16.277210 35,000 73 496 64
2019-08-11 18:53:10 GMT 50.963387 16.254425 35,000 73 496 -64
2019-08-11 18:53:04 GMT 50.961182 16.242544 35,000 73 497 0
2019-08-11 18:52:57 GMT 50.956638 16.218033 35,000 73 497 0
2019-08-11 18:52:54 GMT 50.954132 16.204611 35,000 73 497 64
2019-08-11 18:52:49 GMT 50.951656 16.191177 35,000 73 497 0
2019-08-11 18:52:45 GMT 50.949188 16.177826 35,000 73 497 0
2019-08-11 18:52:41 GMT 50.946304 16.162491 35,000 73 497 0
2019-08-11 18:52:36 GMT 50.940811 16.132812 35,000 73 497 64
2019-08-11 18:52:32 GMT 50.940811 16.132812 35,000 73 497 0
2019-08-11 18:52:25 GMT 50.936153 16.107941 35,000 73 497 0
2019-08-11 18:52:20 GMT 50.932991 16.090927 35,000 73 497 0
2019-08-11 18:52:15 GMT 50.929276 16.071068 35,000 73 497 64
2019-08-11 18:52:09 GMT 50.925888 16.052881 35,000 73 497 0
2019-08-11 18:52:05 GMT 50.922840 16.036682 35,000 73 497 0
2019-08-11 18:52:01 GMT 50.918015 16.010866 35,000 73 497 0
2019-08-11 18:51:54 GMT 50.915634 15.998246 35,000 73 497 0
2019-08-11 18:51:51 GMT 50.913998 15.989532 35,000 73 497 0
2019-08-11 18:51:48 GMT 50.911388 15.975494 35,000 73 498 64
2019-08-11 18:51:45 GMT 50.909805 15.967102 35,000 73 497 -64
2019-08-11 18:51:42 GMT 50.907852 15.956751 35,000 72 498 -64
2019-08-11 18:51:39 GMT 50.903893 15.935669 35,000 73 497 0
2019-08-11 18:51:36 GMT 50.901810 15.924608 35,000 73 497 0
2019-08-11 18:51:29 GMT 50.899658 15.913251 35,000 73 498 0
2019-08-11 18:51:26 GMT 50.896725 15.897522 35,000 73 497 0
2019-08-11 18:51:23 GMT 50.895050 15.888748 35,000 73 498 64
2019-08-11 18:51:18 GMT 50.892014 15.872498 35,000 73 498 64
2019-08-11 18:51:13 GMT 50.888901 15.856092 35,000 73 498 0
2019-08-11 18:51:10 GMT 50.887115 15.846665 35,000 73 498 64
2019-08-11 18:51:03 GMT 50.882538 15.822539 35,000 73 498 64
2019-08-11 18:51:00 GMT 50.880013 15.809174 35,000 73 498 64
2019-08-11 18:50:56 GMT 50.875313 15.784531 35,000 73 498 64
2019-08-11 18:50:52 GMT 50.875313 15.784531 35,000 73 500 0
2019-08-11 18:50:49 GMT 50.872787 15.771171 35,000 73 500 0
2019-08-11 18:50:42 GMT 50.867981 15.745932 35,000 73 500 0
2019-08-11 18:50:39 GMT 50.866333 15.737321 35,000 69 499 0
2019-08-11 18:50:34 GMT 50.863346 15.721588 35,000 73 498 -64
2019-08-11 18:50:30 GMT 50.858555 15.696487 35,000 73 499 0
2019-08-11 18:50:17 GMT 50.851570 15.660019 35,000 73 498 0
2019-08-11 18:50:09 GMT 50.846558 15.634065 35,000 73 498 0
2019-08-11 18:50:06 GMT 50.843903 15.620332 35,000 72 498 0
2019-08-11 18:50:01 GMT 50.841202 15.606302 35,000 72 497 0
2019-08-11 18:49:58 GMT 50.839188 15.596085 33,275 72 498 -64
2019-08-11 18:49:54 GMT 50.836624 15.582845 35,000 72 498 64
2019-08-11 18:49:48 GMT 50.831680 15.557531 35,000 72 498 0
2019-08-11 18:49:43 GMT 50.824860 15.523088 35,000 72 498 -64
2019-08-11 18:49:38 GMT 50.824860 15.523088 35,000 72 498 -64
2019-08-11 18:49:32 GMT 50.821518 15.506237 35,000 72 498 0
2019-08-11 18:49:28 GMT 50.817818 15.487595 35,000 72 499 0
2019-08-11 18:49:25 GMT 50.816422 15.480423 35,000 73 498 -64
2019-08-11 18:49:20 GMT 50.813351 15.464249 35,000 73 498 0
2019-08-11 18:49:17 GMT 50.811394 15.454025 35,000 72 499 0
2019-08-11 18:49:14 GMT 50.806549 15.429927 35,000 69 499 0
2019-08-11 18:49:10 GMT 50.806549 15.429927 35,000 71 499 0
2019-08-11 18:49:06 GMT 50.803108 15.413589 35,000 70 499 64
2019-08-11 18:49:02 GMT 50.797382 15.387955 35,000 69 499 0
2019-08-11 18:48:59 GMT 50.797382 15.387955 35,000 69 499 0
2019-08-11 18:48:55 GMT 50.794281 15.374772 35,000 68 500 0
2019-08-11 18:48:52 GMT 50.791515 15.363235 35,000 68 499 0
2019-08-11 18:48:45 GMT 50.786224 15.342185 35,000 67 499 0
2019-08-11 18:48:41 GMT 50.782745 15.328749 35,000 64 499 -64
2019-08-11 18:48:35 GMT 50.777832 15.310669 35,000 66 499 64
2019-08-11 18:48:32 GMT 50.773224 15.294800 35,000 64 500 0
2019-08-11 18:48:29 GMT 50.771267 15.288239 35,000 64 499 0
2019-08-11 18:48:25 GMT 50.767410 15.275673 35,000 64 499 0
2019-08-11 18:48:20 GMT 50.762890 15.260849 35,000 64 499 0
2019-08-11 18:48:15 GMT 50.756653 15.240413 35,000 64 499 64
2019-08-11 18:48:12 GMT 50.753624 15.230560 35,000 64 499 0
2019-08-11 18:48:06 GMT 50.749100 15.215693 35,000 64 499 0
2019-08-11 18:48:03 GMT 50.745293 15.203171 35,000 64 499 0
2019-08-11 18:48:00 GMT 50.742142 15.192904 35,000 64 499 0
2019-08-11 18:47:57 GMT 50.739937 15.185776 35,000 64 499 0
2019-08-11 18:47:53 GMT 50.735046 15.169744 35,000 64 499 -64
2019-08-11 18:47:47 GMT 50.729603 15.151978 35,000 64 499 0
2019-08-11 18:47:43 GMT 50.726017 15.140228 35,000 64 499 0
2019-08-11 18:47:40 GMT 50.722961 15.130178 35,000 64 499 0
2019-08-11 18:47:37 GMT 50.718758 15.116501 35,000 64 499 0
2019-08-11 18:47:32 GMT 50.713806 15.100188 35,000 64 499 0
2019-08-11 18:47:27 GMT 50.708374 15.082397 35,000 64 500 0
2019-08-11 18:47:24 GMT 50.706371 15.075760 35,000 64 500 0
2019-08-11 18:47:21 GMT 50.703953 15.067825 35,000 64 500 -64
2019-08-11 18:47:17 GMT 50.699623 15.053635 35,000 65 499 -64
2019-08-11 18:47:13 GMT 50.694874 15.037994 35,000 64 499 0
2019-08-11 18:47:06 GMT 50.682678 14.997406 35,000 64 499 0
2019-08-11 18:47:00 GMT 50.682678 14.997406 35,000 64 500 64
2019-08-11 18:46:56 GMT 50.673111 14.965160 35,000 64 500 0
2019-08-11 18:46:50 GMT 50.673111 14.965160 35,000 65 499 0
2019-08-11 18:46:47 GMT 50.669739 14.953803 35,000 63 499 0
2019-08-11 18:46:44 GMT 50.666988 14.944524 35,000 64 499 64
2019-08-11 18:46:40 GMT 50.661777 14.927376 35,000 63 499 0
2019-08-11 18:46:37 GMT 50.659561 14.920229 35,000 63 500 0
2019-08-11 18:46:33 GMT 50.656563 14.910748 35,000 63 499 0
2019-08-11 18:46:29 GMT 50.651394 14.894492 35,000 63 500 64
2019-08-11 18:46:24 GMT 50.647484 14.881724 35,000 64 500 64
2019-08-11 18:46:21 GMT 50.642807 14.866598 35,000 64 499 0
2019-08-11 18:46:18 GMT 50.641251 14.861539 35,000 64 500 0
2019-08-11 18:46:15 GMT 50.637104 14.847874 35,000 64 499 64
2019-08-11 18:46:08 GMT 50.631191 14.828203 35,000 67 497 0
2019-08-11 18:46:05 GMT 50.628296 14.818533 35,000 65 499 -64
2019-08-11 18:46:02 GMT 50.624405 14.805378 35,000 65 499 -64
2019-08-11 18:45:57 GMT 50.620625 14.792423 35,000 65 498 -64
2019-08-11 18:45:54 GMT 50.617271 14.780917 35,000 65 499 64
2019-08-11 18:45:49 GMT 50.612385 14.763695 35,000 66 498 64
2019-08-11 18:45:45 GMT 50.608704 14.749868 35,000 67 498 0
2019-08-11 18:45:42 GMT 50.606285 14.740757 35,000 67 498 0
2019-08-11 18:45:39 GMT 50.603302 14.729197 35,000 67 498 -64
2019-08-11 18:45:34 GMT 50.599583 14.715073 35,000 67 498 -64
2019-08-11 18:45:31 GMT 50.596756 14.704188 35,000 67 498 -64
2019-08-11 18:45:28 GMT 50.594135 14.694140 35,000 67 498 0
2019-08-11 18:45:24 GMT 50.590599 14.680629 35,000 67 498 0
2019-08-11 18:45:18 GMT 50.586037 14.663259 35,000 67 498 64
2019-08-11 18:45:15 GMT 50.582870 14.651234 35,000 67 497 0
2019-08-11 18:45:12 GMT 50.577888 14.632082 35,000 67 498 -64
2019-08-11 18:45:06 GMT 50.575333 14.622369 35,000 67 498 -64
2019-08-11 18:45:02 GMT 50.570984 14.605817 35,000 67 497 0
2019-08-11 18:44:59 GMT 50.569138 14.598974 35,000 67 497 0
2019-08-11 18:44:56 GMT 50.566578 14.589101 35,000 67 497 0
2019-08-11 18:44:53 GMT 50.560455 14.565920 35,000 67 497 0
2019-08-11 18:44:46 GMT 50.557220 14.553544 35,000 67 497 0
2019-08-11 18:44:42 GMT 50.554008 14.541370 35,000 67 495 0
2019-08-11 18:44:38 GMT 50.548004 14.518655 35,000 67 497 0
2019-08-11 18:44:35 GMT 50.548004 14.518655 35,000 67 497 0
2019-08-11 18:44:30 GMT 50.542835 14.498910 35,000 67 497 0
2019-08-11 18:44:25 GMT 50.539444 14.486196 35,000 67 498 0
2019-08-11 18:44:22 GMT 50.536690 14.475749 35,000 67 497 0
2019-08-11 18:44:19 GMT 50.532593 14.460235 35,000 67 498 0
2019-08-11 18:44:14 GMT 50.529510 14.448539 35,000 67 497 0
2019-08-11 18:44:11 GMT 50.526497 14.437074 35,000 67 497 0
2019-08-11 18:44:08 GMT 50.520355 14.413990 35,000 67 497 0
2019-08-11 18:44:04 GMT 50.520355 14.413990 35,000 67 497 -64
2019-08-11 18:44:00 GMT 50.517326 14.402482 35,000 67 497 0
2019-08-11 18:43:53 GMT 50.511200 14.379369 35,000 67 495 0
2019-08-11 18:43:50 GMT 50.507595 14.365812 35,000 67 496 0
2019-08-11 18:43:46 GMT 50.505035 14.356162 35,000 67 496 0
2019-08-11 18:43:43 GMT 50.501869 14.344210 35,000 67 496 0
2019-08-11 18:43:40 GMT 50.497925 14.329352 35,000 67 496 0
2019-08-11 18:43:35 GMT 50.494095 14.314889 35,000 67 496 0
2019-08-11 18:43:32 GMT 50.492744 14.309989 35,000 67 495 64
2019-08-11 18:43:29 GMT 50.489090 14.296176 35,000 67 496 0
2019-08-11 18:43:25 GMT 50.486366 14.286012 35,000 67 495 0
2019-08-11 18:43:22 GMT 50.483414 14.274782 35,000 67 495 64
2019-08-11 18:43:18 GMT 50.479523 14.260326 35,000 67 495 0
2019-08-11 18:43:15 GMT 50.476871 14.250381 35,000 67 495 0
2019-08-11 18:43:12 GMT 50.474358 14.240879 35,000 67 495 0
2019-08-11 18:43:09 GMT 50.467934 14.216828 35,000 67 495 0
2019-08-11 18:43:04 GMT 50.467934 14.216828 35,000 67 495 -64
2019-08-11 18:43:01 GMT 50.464859 14.205471 35,000 67 495 0
2019-08-11 18:42:58 GMT 50.460800 14.190216 35,000 66 496 0
2019-08-11 18:42:52 GMT 50.456715 14.174887 35,000 67 495 64
2019-08-11 18:42:48 GMT 50.449722 14.148800 35,000 67 495 0
2019-08-11 18:42:45 GMT 50.449722 14.148800 35,000 67 495 0
2019-08-11 18:42:41 GMT 50.446564 14.137091 35,000 67 495 -64
2019-08-11 18:42:38 GMT 50.444412 14.128996 35,000 67 495 -64
2019-08-11 18:42:35 GMT 50.442188 14.120772 35,000 67 495 0
2019-08-11 18:42:30 GMT 50.437489 14.103253 35,000 67 494 0
2019-08-11 18:42:27 GMT 50.433746 14.089243 35,000 67 494 0
2019-08-11 18:42:24 GMT 50.431530 14.080984 35,000 66 496 0
2019-08-11 18:42:21 GMT 50.429340 14.072892 35,000 67 493 -64
2019-08-11 18:42:17 GMT 50.425755 14.059531 35,000 67 494 0
2019-08-11 18:42:13 GMT 50.422440 14.047177 35,000 67 494 -64
2019-08-11 18:42:10 GMT 50.420078 14.038449 35,000 67 494 0
2019-08-11 18:42:07 GMT 50.413792 14.015214 35,000 67 495 64
2019-08-11 18:42:04 GMT 50.413792 14.015214 35,000 67 495 -64
2019-08-11 18:42:00 GMT 50.407742 13.992796 35,000 67 496 -64
2019-08-11 18:41:57 GMT 50.407742 13.992796 35,000 67 496 -64
2019-08-11 18:41:53 GMT 50.404156 13.979509 35,000 67 496 -64
2019-08-11 18:41:50 GMT 50.402206 13.972152 35,000 67 496 -64
2019-08-11 18:41:47 GMT 50.399002 13.960371 35,000 67 496 0
2019-08-11 18:41:44 GMT 50.395218 13.946327 35,000 67 496 0
2019-08-11 18:41:38 GMT 50.391216 13.931555 35,000 67 496 64
2019-08-11 18:41:34 GMT 50.388050 13.919826 35,000 66 495 -64
2019-08-11 18:41:30 GMT 50.383812 13.904237 35,000 66 496 64
2019-08-11 18:41:25 GMT 50.379364 13.887803 35,000 66 496 0
2019-08-11 18:41:22 GMT 50.377213 13.879780 35,000 67 497 0
2019-08-11 18:41:17 GMT 50.371803 13.859995 35,000 67 497 0
2019-08-11 18:41:11 GMT 50.367565 13.844332 35,000 66 496 0
2019-08-11 18:41:07 GMT 50.363281 13.828521 35,000 66 496 0
2019-08-11 18:41:03 GMT 50.360119 13.816792 35,000 66 496 0
2019-08-11 18:40:59 GMT 50.356113 13.802169 35,000 66 496 64
2019-08-11 18:40:53 GMT 50.350807 13.782571 35,000 66 496 0
2019-08-11 18:40:48 GMT 50.346897 13.768170 35,000 66 496 0
2019-08-11 18:40:45 GMT 50.343430 13.755389 35,000 66 496 0
2019-08-11 18:40:41 GMT 50.340706 13.745381 35,000 66 495 -64
2019-08-11 18:40:38 GMT 50.337616 13.734139 35,000 66 496 0
2019-08-11 18:40:33 GMT 50.332558 13.715466 35,000 66 496 0
2019-08-11 18:40:30 GMT 50.325897 13.691133 35,000 66 496 -64
2019-08-11 18:40:26 GMT 50.325897 13.691133 35,000 66 496 -64
2019-08-11 18:40:22 GMT 50.323608 13.682749 35,000 66 496 -64
2019-08-11 18:40:19 GMT 50.318253 13.663161 35,000 66 496 -64
2019-08-11 18:40:12 GMT 50.313538 13.645959 35,000 66 498 0
2019-08-11 18:40:08 GMT 50.310287 13.634033 35,000 66 498 -64
2019-08-11 18:40:04 GMT 50.303513 13.609314 35,000 66 498 0
2019-08-11 18:40:01 GMT 50.303513 13.609314 35,000 66 498 64
2019-08-11 18:39:58 GMT 50.300949 13.599990 35,000 66 498 64
2019-08-11 18:39:53 GMT 50.296761 13.584743 35,000 66 498 0
2019-08-11 18:39:50 GMT 50.293625 13.573392 35,000 66 497 -64
2019-08-11 18:39:47 GMT 50.291592 13.565963 35,000 66 498 0
2019-08-11 18:39:44 GMT 50.289276 13.557563 35,000 66 498 -64
2019-08-11 18:39:41 GMT 50.285774 13.544881 35,000 66 498 -64
2019-08-11 18:39:38 GMT 50.283585 13.536789 35,000 66 498 0
2019-08-11 18:39:35 GMT 50.280003 13.523725 35,000 66 498 0
2019-08-11 18:39:31 GMT 50.276695 13.511773 35,000 66 497 0
2019-08-11 18:39:27 GMT 50.273342 13.499673 35,000 66 497 -64
2019-08-11 18:39:24 GMT 50.269806 13.486757 35,000 66 498 64
2019-08-11 18:39:21 GMT 50.267899 13.479863 35,000 66 498 64
2019-08-11 18:39:18 GMT 50.262962 13.462038 35,000 66 497 -64
2019-08-11 18:39:12 GMT 50.259563 13.449715 35,000 66 496 -64
2019-08-11 18:39:09 GMT 50.257233 13.441267 35,000 66 495 -64
2019-08-11 18:39:06 GMT 50.254257 13.430489 35,000 66 495 -64
2019-08-11 18:39:02 GMT 50.248390 13.409333 35,000 66 493 0
2019-08-11 18:38:55 GMT 50.239288 13.376433 35,000 66 490 0
2019-08-11 18:38:50 GMT 50.239288 13.376433 35,000 66 490 64
2019-08-11 18:38:47 GMT 50.236477 13.366279 35,000 66 490 64
2019-08-11 18:38:44 GMT 50.233727 13.356331 35,000 66 487 64
2019-08-11 18:38:39 GMT 50.229816 13.342153 35,000 66 471 960
2019-08-11 18:38:36 GMT 50.226654 13.330753 35,000 66 484 0
2019-08-11 18:38:32 GMT 50.224045 13.321368 35,000 66 483 0
2019-08-11 18:38:28 GMT 50.219810 13.306076 35,000 66 480 64
2019-08-11 18:38:25 GMT 50.217621 13.298134 35,000 66 480 64
2019-08-11 18:38:22 GMT 50.215294 13.289820 35,000 66 480 64
2019-08-11 18:38:19 GMT 50.209942 13.270668 35,000 66 479 64
2019-08-11 18:38:16 GMT 50.209942 13.270668 35,000 66 479 -64
2019-08-11 18:38:13 GMT 50.206402 13.257900 35,000 66 479 -64
2019-08-11 18:38:10 GMT 50.203842 13.248621 35,000 66 478 -64
2019-08-11 18:38:07 GMT 50.201096 13.238897 35,000 66 477 -128
2019-08-11 18:38:04 GMT 50.198044 13.227900 35,025 66 476 -128
2019-08-11 18:37:58 GMT 50.193512 13.211638 35,025 66 474 0
2019-08-11 18:37:55 GMT 50.190575 13.201038 35,025 66 473 64
2019-08-11 18:37:52 GMT 50.188107 13.192205 35,000 66 472 192
2019-08-11 18:37:48 GMT 50.182892 13.173498 34,975 66 471 640
2019-08-11 18:37:45 GMT 50.182892 13.173498 34,925 66 471 832
2019-08-11 18:37:42 GMT 50.180054 13.163328 34,925 66 471 960
2019-08-11 18:37:39 GMT 50.176933 13.152268 34,875 66 471 960
2019-08-11 18:37:36 GMT 50.174973 13.145286 34,825 66 471 960
2019-08-11 18:37:33 GMT 50.172375 13.136011 34,775 66 471 1024
2019-08-11 18:37:30 GMT 50.169720 13.126361 34,725 66 472 1024
2019-08-11 18:37:26 GMT 50.165764 13.112331 34,675 66 472 1024
2019-08-11 18:37:23 GMT 50.163574 13.104521 34,625 66 472 1024
2019-08-11 18:37:20 GMT 50.160828 13.094619 33,275 66 473 1024
2019-08-11 18:37:16 GMT 50.157383 13.082341 34,475 66 472 1024
2019-08-11 18:37:13 GMT 50.154831 13.073225 34,450 66 472 1024
2019-08-11 18:37:10 GMT 50.151352 13.060865 34,350 66 473 1024
2019-08-11 18:37:05 GMT 50.147003 13.045448 34,275 66 480 1856
2019-08-11 18:37:02 GMT 50.141830 13.027111 34,050 66 473 960
2019-08-11 18:36:58 GMT 50.141830 13.027111 34,200 66 473 960
2019-08-11 18:36:55 GMT 50.138992 13.016920 34,075 66 474 1024
2019-08-11 18:36:52 GMT 50.136063 13.006476 34,075 66 474 1024
2019-08-11 18:36:48 GMT 50.132080 12.992417 33,850 66 474 1856
2019-08-11 18:36:42 GMT 50.126358 12.972107 33,825 66 476 1856
2019-08-11 18:36:37 GMT 50.123199 12.960831 33,450 66 484 1728
2019-08-11 18:36:34 GMT 50.120094 12.949837 33,525 66 481 1920
2019-08-11 18:36:30 GMT 50.113907 12.927873 33,400 66 485 1728
2019-08-11 18:36:27 GMT 50.113907 12.927873 33,300 66 484 1728
2019-08-11 18:36:23 GMT 50.109833 12.913561 33,225 66 485 1728
2019-08-11 18:36:17 GMT 50.105164 12.896937 33,050 66 488 1216
2019-08-11 18:36:10 GMT 50.098450 12.873230 33,000 66 467 64
2019-08-11 18:36:07 GMT 50.095734 12.863545 33,000 66 462 1024
2019-08-11 18:36:02 GMT 50.091141 12.847397 33,000 66 486 -128
2019-08-11 18:35:58 GMT 50.086990 12.832754 33,000 66 484 0
2019-08-11 18:35:55 GMT 50.082249 12.815849 33,000 66 481 64
2019-08-11 18:35:52 GMT 50.076382 12.795212 33,000 66 481 64
2019-08-11 18:35:46 GMT 50.076382 12.795212 33,000 66 479 128
2019-08-11 18:35:41 GMT 50.072617 12.781798 33,000 69 461 896
2019-08-11 18:35:35 GMT 50.066513 12.760249 33,000 66 473 -64
2019-08-11 18:35:30 GMT 50.059483 12.735381 33,000 69 461 896
2019-08-11 18:35:26 GMT 50.059483 12.735381 33,000 66 471 -64
2019-08-11 18:35:23 GMT 50.056923 12.726325 33,000 66 469 -64
2019-08-11 18:35:20 GMT 50.054176 12.716452 33,025 66 469 -64
2019-08-11 18:35:13 GMT 50.048172 12.695136 33,000 66 464 192
2019-08-11 18:35:10 GMT 50.045471 12.685572 32,450 66 461 1024
2019-08-11 18:35:03 GMT 50.038769 12.661595 32,900 66 462 1024
2019-08-11 18:34:59 GMT 50.035858 12.651191 32,825 66 462 1088
2019-08-11 18:34:53 GMT 50.029953 12.630519 32,700 65 462 1024
2019-08-11 18:34:50 GMT 50.027737 12.622920 32,575 66 461 1024
2019-08-11 18:34:47 GMT 50.026062 12.617003 32,625 67 462 960
2019-08-11 18:34:41 GMT 50.019516 12.593006 32,500 68 461 896
2019-08-11 18:34:37 GMT 50.017773 12.586249 32,425 69 461 960
2019-08-11 18:34:32 GMT 50.013885 12.570311 32,325 70 460 1152
2019-08-11 18:34:29 GMT 50.011814 12.561530 32,300 70 460 1152
2019-08-11 18:34:26 GMT 50.009811 12.552696 32,225 71 460 1024
2019-08-11 18:34:21 GMT 50.006088 12.535252 32,200 72 459 960
2019-08-11 18:34:18 GMT 50.002831 12.518624 32,100 73 459 960
2019-08-11 18:34:11 GMT 50.000084 12.503481 31,850 77 460 1792
2019-08-11 18:34:08 GMT 49.998047 12.491455 31,925 76 459 1792
2019-08-11 18:34:05 GMT 49.997105 12.485220 31,800 76 459 1792
2019-08-11 18:34:02 GMT 49.995426 12.473936 31,725 78 466 64
2019-08-11 18:33:59 GMT 49.994293 12.465507 31,200 78 466 512
2019-08-11 18:33:56 GMT 49.992874 12.454882 31,500 78 462 1856
2019-08-11 18:33:53 GMT 49.991890 12.447807 31,500 78 462 1856
2019-08-11 18:33:50 GMT 49.990585 12.438041 31,400 78 462 1856
2019-08-11 18:33:47 GMT 49.989075 12.426621 31,250 78 463 1856
2019-08-11 18:33:44 GMT 49.987793 12.417075 31,200 78 464 1728
2019-08-11 18:33:40 GMT 49.985603 12.400966 31,050 78 466 512
2019-08-11 18:33:36 GMT 49.983078 12.382315 31,000 78 465 768
2019-08-11 18:33:33 GMT 49.983078 12.382315 31,000 78 466 256
2019-08-11 18:33:29 GMT 49.981045 12.367413 31,000 78 466 64
2019-08-11 18:33:23 GMT 49.978157 12.346109 31,000 78 466 64
2019-08-11 18:33:19 GMT 49.976250 12.331856 31,000 78 466 64
2019-08-11 18:33:15 GMT 49.974850 12.321538 31,000 78 466 64
2019-08-11 18:33:11 GMT 49.972961 12.307868 31,000 78 466 0
2019-08-11 18:33:08 GMT 49.971725 12.298688 31,000 78 467 0
2019-08-11 18:33:05 GMT 49.969940 12.285534 31,000 78 466 0
2019-08-11 18:33:00 GMT 49.968155 12.272524 31,000 78 468 0
2019-08-11 18:32:57 GMT 49.966873 12.263055 31,000 78 468 0
2019-08-11 18:32:54 GMT 49.963440 12.237902 31,000 77 467 0
2019-08-11 18:32:49 GMT 49.963440 12.237902 31,000 78 467 64
2019-08-11 18:32:46 GMT 49.961609 12.224748 31,000 77 467 0
2019-08-11 18:32:38 GMT 49.958000 12.198387 31,000 77 467 0
2019-08-11 18:32:34 GMT 49.956184 12.185471 31,000 77 467 0
2019-08-11 18:32:26 GMT 49.952820 12.160998 31,000 77 467 -64
2019-08-11 18:32:23 GMT 49.951538 12.151891 31,000 77 467 -64
2019-08-11 18:32:20 GMT 49.950085 12.141600 31,000 77 467 -64
2019-08-11 18:32:16 GMT 49.947945 12.126382 31,000 77 467 0
2019-08-11 18:32:13 GMT 49.945011 12.105375 31,000 77 468 0
2019-08-11 18:32:10 GMT 49.945011 12.105375 31,000 77 468 0
2019-08-11 18:32:05 GMT 49.943207 12.092767 31,000 77 467 64
2019-08-11 18:32:02 GMT 49.941799 12.082957 31,000 77 468 64
2019-08-11 18:31:59 GMT 49.940495 12.073381 31,000 77 468 0
2019-08-11 18:31:55 GMT 49.938080 12.055616 31,000 77 469 0
2019-08-11 18:31:51 GMT 49.936352 12.043688 31,000 76 470 -64
2019-08-11 18:31:46 GMT 49.932724 12.020850 31,000 69 472 128
2019-08-11 18:31:43 GMT 49.932724 12.020850 31,000 74 471 -64
2019-08-11 18:31:40 GMT 49.931000 12.011100 31,000 73 472 -64
2019-08-11 18:31:37 GMT 49.929558 12.003232 31,000 73 471 -64
2019-08-11 18:31:33 GMT 49.926086 11.985578 31,000 63 472 -64
2019-08-11 18:31:27 GMT 49.922482 11.968417 31,000 67 473 -64
2019-08-11 18:31:24 GMT 49.918289 11.950304 31,000 69 472 128
2019-08-11 18:31:17 GMT 49.915604 11.939320 31,000 67 473 -64
2019-08-11 18:31:14 GMT 49.912518 11.927292 31,000 67 473 -64
2019-08-11 18:31:11 GMT 49.909912 11.917791 31,000 67 473 -64
2019-08-11 18:31:08 GMT 49.906860 11.907084 31,000 64 473 -64
2019-08-11 18:31:04 GMT 49.903393 11.895744 31,000 63 473 64
2019-08-11 18:31:01 GMT 49.899994 11.884894 31,000 63 473 0
2019-08-11 18:30:58 GMT 49.897797 11.878100 31,000 63 472 128
2019-08-11 18:30:55 GMT 49.893860 11.865813 31,000 63 472 128
2019-08-11 18:30:51 GMT 49.891479 11.858440 31,000 63 472 64
2019-08-11 18:30:48 GMT 49.888962 11.850536 31,000 63 472 0
2019-08-11 18:30:45 GMT 49.885380 11.839402 31,000 63 472 -64
2019-08-11 18:30:42 GMT 49.879074 11.819771 31,000 63 472 0
2019-08-11 18:30:36 GMT 49.876160 11.810600 31,000 63 472 64
2019-08-11 18:30:30 GMT 49.871246 11.795341 31,000 63 472 -64
2019-08-11 18:30:27 GMT 49.867859 11.784788 31,000 63 472 -64
2019-08-11 18:30:23 GMT 49.863964 11.772741 31,000 63 470 64
2019-08-11 18:30:19 GMT 49.856747 11.750323 31,000 63 471 -64
2019-08-11 18:30:16 GMT 49.856747 11.750323 31,000 63 471 0
2019-08-11 18:30:13 GMT 49.854858 11.744457 31,000 63 471 64
2019-08-11 18:30:10 GMT 49.851162 11.732953 31,000 63 470 0
2019-08-11 18:30:04 GMT 49.844646 11.712762 31,000 63 470 -64
2019-08-11 18:29:59 GMT 49.835495 11.684394 31,000 63 470 -64
2019-08-11 18:29:53 GMT 49.835495 11.684394 31,000 63 470 64
2019-08-11 18:29:48 GMT 49.830681 11.669410 31,000 63 470 64
2019-08-11 18:29:45 GMT 49.827072 11.658229 31,000 63 473 1024
2019-08-11 18:29:42 GMT 49.824070 11.649071 31,000 63 473 576
2019-08-11 18:29:39 GMT 49.821369 11.640757 31,000 63 471 -128
2019-08-11 18:29:36 GMT 49.818466 11.631775 30,550 63 474 1024
2019-08-11 18:29:33 GMT 49.815037 11.621160 31,000 62 436 1664
2019-08-11 18:29:27 GMT 49.809769 11.604815 31,000 63 472 -64
2019-08-11 18:29:24 GMT 49.806290 11.594118 31,000 63 473 192
2019-08-11 18:29:21 GMT 49.803726 11.586196 31,000 63 473 192
2019-08-11 18:29:18 GMT 49.800236 11.575359 30,975 63 473 448
2019-08-11 18:29:13 GMT 49.795856 11.561923 30,900 63 473 896
2019-08-11 18:29:09 GMT 49.791000 11.546992 30,850 63 473 1024
2019-08-11 18:29:02 GMT 49.784920 11.528221 30,700 63 473 1024
2019-08-11 18:28:59 GMT 49.781937 11.519020 30,700 63 474 1024
2019-08-11 18:28:56 GMT 49.779144 11.510492 30,675 63 474 1024
2019-08-11 18:28:52 GMT 49.775299 11.498566 30,400 63 472 960
2019-08-11 18:28:49 GMT 49.772350 11.489472 30,500 63 473 1024
2019-08-11 18:28:46 GMT 49.769138 11.479599 30,475 63 473 1024
2019-08-11 18:28:41 GMT 49.764481 11.465421 30,400 63 472 960
2019-08-11 18:28:38 GMT 49.761475 11.456138 30,075 63 470 1344
2019-08-11 18:28:35 GMT 49.758152 11.445972 30,300 63 472 1024
2019-08-11 18:28:32 GMT 49.755707 11.438430 30,250 63 471 1152
2019-08-11 18:28:29 GMT 49.753326 11.431130 30,200 63 471 1216
2019-08-11 18:28:25 GMT 49.748932 11.417686 30,075 63 466 768
2019-08-11 18:28:21 GMT 49.745209 11.406332 29,875 63 468 960
2019-08-11 18:28:17 GMT 49.740089 11.390670 29,950 63 469 960
2019-08-11 18:28:14 GMT 49.738083 11.384583 29,925 63 466 768
2019-08-11 18:28:10 GMT 49.731812 11.365356 29,850 63 466 640
2019-08-11 18:28:07 GMT 49.727554 11.352274 29,825 63 464 448
2019-08-11 18:28:04 GMT 49.727554 11.352274 29,825 63 462 576
2019-08-11 18:27:58 GMT 49.722931 11.338180 29,725 63 460 1088
2019-08-11 18:27:54 GMT 49.717697 11.322228 29,650 63 460 1216
2019-08-11 18:27:49 GMT 49.713409 11.309052 29,575 63 459 1216
2019-08-11 18:27:46 GMT 49.707504 11.291054 29,475 63 457 1216
2019-08-11 18:27:42 GMT 49.707504 11.291054 29,450 63 457 1216
2019-08-11 18:27:39 GMT 49.703266 11.278134 29,275 63 454 1152
2019-08-11 18:27:36 GMT 49.700939 11.271082 29,300 63 456 1088
2019-08-11 18:27:33 GMT 49.698563 11.263881 29,275 63 454 1152
2019-08-11 18:27:30 GMT 49.691986 11.243856 29,100 63 452 1216
2019-08-11 18:27:26 GMT 49.691986 11.243856 29,100 63 453 1216
2019-08-11 18:27:23 GMT 49.689056 11.234822 28,900 63 450 1216
2019-08-11 18:27:20 GMT 49.685810 11.224984 29,000 63 451 1216
2019-08-11 18:27:16 GMT 49.682510 11.215017 28,800 63 448 1152
2019-08-11 18:27:13 GMT 49.679245 11.205090 28,850 63 448 1152
2019-08-11 18:27:08 GMT 49.675690 11.194201 28,600 63 445 1600
2019-08-11 18:27:05 GMT 49.672169 11.183637 28,575 63 446 1408
2019-08-11 18:27:02 GMT 49.669373 11.175192 28,350 62 440 1600
2019-08-11 18:26:57 GMT 49.665253 11.162615 28,525 63 445 1600
2019-08-11 18:26:54 GMT 49.662369 11.153870 28,200 63 444 1600
2019-08-11 18:26:51 GMT 49.659134 11.144145 27,175 62 436 1664
2019-08-11 18:26:48 GMT 49.655361 11.132714 28,150 62 442 1600
2019-08-11 18:26:45 GMT 49.653809 11.127994 27,400 63 440 1536
2019-08-11 18:26:42 GMT 49.650288 11.117348 28,075 63 441 1536
2019-08-11 18:26:35 GMT 49.644562 11.099950 27,925 63 440 1600
2019-08-11 18:26:31 GMT 49.640396 11.087373 27,850 62 440 1664
2019-08-11 18:26:27 GMT 49.637146 11.077616 27,650 63 438 1600
2019-08-11 18:26:20 GMT 49.630596 11.057888 27,550 62 436 1600
2019-08-11 18:26:16 GMT 49.626873 11.046604 27,325 62 436 1600
2019-08-11 18:26:12 GMT 49.622917 11.034727 27,200 62 434 1600
2019-08-11 18:26:09 GMT 49.620621 11.027744 27,175 62 436 1664
2019-08-11 18:26:06 GMT 49.613792 11.007187 27,025 62 434 1600
2019-08-11 18:26:02 GMT 49.613792 11.007187 27,025 62 434 1600
2019-08-11 18:25:59 GMT 49.611420 11.000133 26,875 62 433 1664
2019-08-11 18:25:53 GMT 49.606064 10.984027 26,700 62 432 1600
2019-08-11 18:25:49 GMT 49.601486 10.970282 26,650 62 430 1600
2019-08-11 18:25:46 GMT 49.598335 10.960867 26,625 62 430 1664
2019-08-11 18:25:42 GMT 49.595352 10.951851 23,075 59 427 1984
2019-08-11 18:25:38 GMT 49.592010 10.941949 26,375 62 428 1664
2019-08-11 18:25:33 GMT 49.587769 10.929392 26,250 62 427 1600
2019-08-11 18:25:29 GMT 49.582809 10.914700 26,150 62 426 1600
2019-08-11 18:25:25 GMT 49.576878 10.897250 25,975 62 425 2048
2019-08-11 18:25:19 GMT 49.574364 10.889752 25,650 62 424 1920
2019-08-11 18:25:13 GMT 49.569523 10.875648 24,600 62 423 1984
2019-08-11 18:25:10 GMT 49.566029 10.865256 25,500 62 423 1984
2019-08-11 18:25:05 GMT 49.561523 10.851746 25,350 63 424 1920
2019-08-11 18:25:02 GMT 49.558487 10.842467 25,225 61 425 1920
2019-08-11 18:24:57 GMT 49.555115 10.832447 24,850 60 426 1984
2019-08-11 18:24:54 GMT 49.552250 10.824354 25,050 61 425 1920
2019-08-11 18:24:46 GMT 49.540283 10.792260 24,575 57 428 1984
2019-08-11 18:24:36 GMT 49.534142 10.777142 24,375 57 428 1984
2019-08-11 18:24:33 GMT 49.531128 10.769854 24,000 51 441 0
2019-08-11 18:24:28 GMT 49.524132 10.753759 23,875 53 432 2304
2019-08-11 18:24:25 GMT 49.522457 10.750048 23,875 53 432 2304
2019-08-11 18:24:22 GMT 49.518448 10.741449 23,975 54 431 2048
2019-08-11 18:24:18 GMT 49.513596 10.731547 23,750 51 433 2496
2019-08-11 18:24:14 GMT 49.509468 10.723399 23,500 51 436 2496
2019-08-11 18:24:11 GMT 49.505512 10.715753 23,350 51 437 2560
2019-08-11 18:24:06 GMT 49.499680 10.704587 23,225 51 438 2496
2019-08-11 18:24:03 GMT 49.493687 10.693112 23,125 51 439 2112
2019-08-11 18:23:58 GMT 49.488567 10.683313 23,000 51 439 1472
2019-08-11 18:23:54 GMT 49.483727 10.674034 23,000 51 439 -192
2019-08-11 18:23:51 GMT 49.480469 10.667799 23,000 51 438 64
2019-08-11 18:23:48 GMT 49.475784 10.658907 23,000 51 438 -192
2019-08-11 18:23:42 GMT 49.467499 10.643150 23,000 51 441 -64
2019-08-11 18:23:39 GMT 49.464359 10.637067 23,000 51 441 0
2019-08-11 18:23:34 GMT 49.457932 10.624791 23,000 51 438 0
2019-08-11 18:23:31 GMT 49.453934 10.617173 23,000 51 436 0
2019-08-11 18:23:28 GMT 49.449646 10.609034 23,000 51 434 -64
2019-08-11 18:23:24 GMT 49.444656 10.599494 23,000 51 433 128
2019-08-11 18:23:21 GMT 49.440849 10.592231 23,000 51 432 64
2019-08-11 18:23:17 GMT 49.436474 10.583917 23,000 51 432 -64
2019-08-11 18:23:13 GMT 49.431656 10.574702 23,000 51 432 -64
2019-08-11 18:23:10 GMT 49.428680 10.568992 23,000 51 431 64
2019-08-11 18:23:05 GMT 49.417740 10.548213 23,000 51 430 -64
2019-08-11 18:22:59 GMT 49.413338 10.539864 23,000 51 430 -64
2019-08-11 18:22:55 GMT 49.408997 10.531593 23,025 51 430 -64
2019-08-11 18:22:52 GMT 49.403915 10.522015 23,000 51 430 -64
2019-08-11 18:22:48 GMT 49.400768 10.516012 23,000 51 430 64
2019-08-11 18:22:43 GMT 49.393272 10.501773 23,000 51 431 64
2019-08-11 18:22:40 GMT 49.390293 10.496063 23,000 51 430 64
2019-08-11 18:22:33 GMT 49.377258 10.471344 23,000 51 430 0
2019-08-11 18:22:29 GMT 49.377258 10.471344 23,000 51 430 64
2019-08-11 18:22:26 GMT 49.372791 10.462887 23,025 51 430 -64
2019-08-11 18:22:23 GMT 49.369671 10.456961 23,000 51 430 -64
2019-08-11 18:22:19 GMT 49.364044 10.446308 23,000 51 431 -192
2019-08-11 18:22:16 GMT 49.360428 10.439406 23,000 51 432 128
2019-08-11 18:22:10 GMT 49.352509 10.424406 23,000 51 431 192
2019-08-11 18:22:06 GMT 49.347698 10.415328 23,000 51 431 64
2019-08-11 18:22:03 GMT 49.340332 10.401236 23,000 51 430 64
2019-08-11 18:22:00 GMT 49.336945 10.394827 23,000 51 430 64
2019-08-11 18:21:52 GMT 49.329391 10.380601 23,000 50 432 -64
2019-08-11 18:21:48 GMT 49.324471 10.371383 23,000 50 433 -64
2019-08-11 18:21:45 GMT 49.320187 10.363288 23,000 50 433 0
2019-08-11 18:21:42 GMT 49.312775 10.349262 23,000 51 434 192
2019-08-11 18:21:39 GMT 49.312775 10.349262 23,000 50 435 128
2019-08-11 18:21:36 GMT 49.309616 10.343276 23,000 50 435 -192
2019-08-11 18:21:33 GMT 49.306274 10.337008 23,000 50 434 -64
2019-08-11 18:21:29 GMT 49.301102 10.327219 23,025 51 435 -128
2019-08-11 18:21:26 GMT 49.296677 10.318836 23,000 51 435 -192
2019-08-11 18:21:23 GMT 49.287693 10.301996 23,025 50 434 -64
2019-08-11 18:21:18 GMT 49.287693 10.301996 23,000 50 433 0
2019-08-11 18:21:15 GMT 49.283981 10.295035 23,000 50 432 192
2019-08-11 18:21:12 GMT 49.280273 10.287992 22,975 50 430 448
2019-08-11 18:21:08 GMT 49.274872 10.277780 22,900 50 428 1088
2019-08-11 18:21:05 GMT 49.271587 10.271639 22,850 50 428 1088
2019-08-11 18:21:02 GMT 49.267723 10.264338 22,775 50 426 1088
2019-08-11 18:20:58 GMT 49.261532 10.252702 22,725 50 426 1088
2019-08-11 18:20:55 GMT 49.258392 10.246723 22,700 50 426 1088
2019-08-11 18:20:51 GMT 49.253540 10.237568 22,500 51 423 1024
2019-08-11 18:20:47 GMT 49.248917 10.228905 22,550 50 423 960
2019-08-11 18:20:44 GMT 49.244019 10.219750 22,275 50 421 1024
2019-08-11 18:20:41 GMT 49.239883 10.211937 22,450 51 423 960
2019-08-11 18:20:36 GMT 49.235416 10.203552 22,350 50 421 1024
2019-08-11 18:20:32 GMT 49.230434 10.194156 22,300 50 420 1024
2019-08-11 18:20:29 GMT 49.226898 10.187495 22,250 50 420 960
2019-08-11 18:20:25 GMT 49.222054 10.178472 22,175 50 418 1920
2019-08-11 18:20:21 GMT 49.216599 10.168269 22,075 50 418 1920
2019-08-11 18:20:18 GMT 49.212933 10.161342 21,950 50 420 2240
2019-08-11 18:20:14 GMT 49.204285 10.145170 21,775 50 422 -64
2019-08-11 18:20:11 GMT 49.204285 10.145170 21,650 50 422 2112
2019-08-11 18:20:08 GMT 49.200642 10.138285 21,600 50 421 2048
2019-08-11 18:20:03 GMT 49.194443 10.126648 21,000 50 424 384
2019-08-11 18:20:00 GMT 49.185230 10.109446 21,050 50 419 -64
2019-08-11 18:19:56 GMT 49.185230 10.109446 21,200 50 425 2048
2019-08-11 18:19:53 GMT 49.181488 10.102492 21,075 50 425 1536
2019-08-11 18:19:44 GMT 49.170242 10.081329 21,000 50 424 256
2019-08-11 18:19:40 GMT 49.165237 10.071998 21,000 50 422 -64
2019-08-11 18:19:34 GMT 49.157951 10.058345 21,000 50 422 128
2019-08-11 18:19:31 GMT 49.155533 10.053791 21,000 50 421 -64
2019-08-11 18:19:28 GMT 49.152237 10.047701 21,000 50 420 -64
2019-08-11 18:19:22 GMT 49.140610 10.026081 21,000 50 418 192
2019-08-11 18:19:19 GMT 49.136959 10.019242 21,000 50 417 -64
2019-08-11 18:19:16 GMT 49.136959 10.019242 20,975 50 417 64
2019-08-11 18:19:12 GMT 49.127289 10.001150 21,000 50 413 -64
2019-08-11 18:19:06 GMT 49.124313 9.995587 21,000 50 415 128
2019-08-11 18:19:02 GMT 49.114891 9.977971 21,000 50 412 -128
2019-08-11 18:18:58 GMT 49.114891 9.977971 20,975 50 413 192
2019-08-11 18:18:55 GMT 49.111725 9.972065 20,975 50 413 -64
2019-08-11 18:18:51 GMT 49.106747 9.962865 21,000 50 412 -192
2019-08-11 18:18:48 GMT 49.102478 9.955022 21,000 50 410 128
2019-08-11 18:18:44 GMT 49.097061 9.944868 21,000 50 410 0
2019-08-11 18:18:41 GMT 49.093479 9.938218 21,000 50 409 -128
2019-08-11 18:18:38 GMT 49.089893 9.931568 21,000 50 407 128
2019-08-11 18:18:35 GMT 49.087006 9.926147 21,000 50 409 -128
2019-08-11 18:18:31 GMT 49.082260 9.917329 21,000 50 407 64
2019-08-11 18:18:27 GMT 49.074783 9.903471 21,000 50 407 -64
2019-08-11 18:18:24 GMT 49.067223 9.889358 21,000 50 407 -64
2019-08-11 18:18:19 GMT 49.067223 9.889358 21,000 50 407 192
2019-08-11 18:18:16 GMT 49.064804 9.884878 21,000 50 407 192
2019-08-11 18:18:13 GMT 49.061325 9.878399 20,950 50 409 192
2019-08-11 18:18:10 GMT 49.056976 9.870371 21,000 50 408 -192
2019-08-11 18:18:05 GMT 49.051163 9.859507 21,000 50 409 192
2019-08-11 18:18:02 GMT 49.046833 9.851484 21,000 50 412 128
2019-08-11 18:17:59 GMT 49.044250 9.846708 21,000 50 411 64
2019-08-11 18:17:56 GMT 49.037018 9.833257 21,000 50 412 -128
2019-08-11 18:17:50 GMT 49.032402 9.824668 21,000 50 410 192
2019-08-11 18:17:47 GMT 49.025230 9.811369 20,975 50 407 768
2019-08-11 18:17:44 GMT 49.025230 9.811369 20,975 50 407 768
2019-08-11 18:17:38 GMT 49.019554 9.800817 20,625 50 402 960
2019-08-11 18:17:35 GMT 49.015274 9.792903 20,775 50 400 896
2019-08-11 18:17:32 GMT 49.012711 9.788096 20,200 57 368 1344
2019-08-11 18:17:29 GMT 49.007587 9.778555 20,700 50 395 896
2019-08-11 18:17:23 GMT 49.000626 9.765508 20,550 50 392 1024
2019-08-11 18:17:19 GMT 48.995911 9.756775 20,575 50 390 960
2019-08-11 18:17:16 GMT 48.992661 9.750789 20,475 55 377 1088
2019-08-11 18:17:13 GMT 48.989960 9.745718 20,225 56 373 1088
2019-08-11 18:17:10 GMT 48.986023 9.738042 20,400 52 384 1024
2019-08-11 18:17:07 GMT 48.983459 9.732830 20,350 55 375 1152
2019-08-11 18:17:04 GMT 48.980495 9.726587 20,300 54 377 1088
2019-08-11 18:17:01 GMT 48.976540 9.718058 20,225 56 373 1088
2019-08-11 18:16:56 GMT 48.972519 9.708675 20,150 57 370 1216
2019-08-11 18:16:53 GMT 48.969372 9.701145 19,725 61 364 2240
2019-08-11 18:16:50 GMT 48.967136 9.695579 19,750 63 332 2368
2019-08-11 18:16:45 GMT 48.962997 9.684730 19,800 62 364 2112
2019-08-11 18:16:42 GMT 48.960480 9.677687 19,675 62 364 2112
2019-08-11 18:16:39 GMT 48.958057 9.670498 19,625 62 362 2048
2019-08-11 18:16:34 GMT 48.952423 9.653368 19,300 63 351 1088
2019-08-11 18:16:28 GMT 48.949585 9.644840 19,325 63 352 1088
2019-08-11 18:16:25 GMT 48.947769 9.639346 19,300 63 351 1088
2019-08-11 18:16:22 GMT 48.945602 9.632897 19,250 63 348 960
2019-08-11 18:16:19 GMT 48.943485 9.626409 19,150 63 341 2112
2019-08-11 18:16:16 GMT 48.941532 9.620337 19,125 63 342 1792
2019-08-11 18:16:13 GMT 48.939388 9.613904 19,050 63 340 2304
2019-08-11 18:16:10 GMT 48.937088 9.606840 18,950 63 339 2496
2019-08-11 18:16:07 GMT 48.932922 9.594234 18,325 63 339 2560
2019-08-11 18:16:04 GMT 48.930084 9.585642 18,525 63 339 2304
2019-08-11 18:16:00 GMT 48.930084 9.585642 18,275 63 338 2240
2019-08-11 18:15:57 GMT 48.927246 9.576979 18,325 63 338 2240
2019-08-11 18:15:54 GMT 48.926056 9.573458 18,200 63 337 2240
2019-08-11 18:15:51 GMT 48.923470 9.565550 18,200 63 337 2240
2019-08-11 18:15:48 GMT 48.921001 9.558033 18,000 63 336 2176
2019-08-11 18:15:44 GMT 48.918915 9.551697 17,900 63 334 2112
2019-08-11 18:15:40 GMT 48.916252 9.543577 17,600 63 331 2560
2019-08-11 18:15:35 GMT 48.912827 9.533245 17,325 63 331 2560
2019-08-11 18:15:32 GMT 48.910583 9.526485 17,425 63 332 2624
2019-08-11 18:15:26 GMT 48.906570 9.514377 17,100 63 329 1536
2019-08-11 18:15:22 GMT 48.903778 9.505993 17,050 63 328 1472
2019-08-11 18:15:19 GMT 48.901684 9.499632 16,950 63 323 1152
2019-08-11 18:15:15 GMT 48.898315 9.489441 16,925 63 323 1152
2019-08-11 18:15:12 GMT 48.896561 9.484165 16,825 63 318 1792
2019-08-11 18:15:08 GMT 48.894932 9.479250 16,775 63 318 1920
2019-08-11 18:15:05 GMT 48.892456 9.471764 16,650 63 316 2304
2019-08-11 18:15:01 GMT 48.890076 9.464651 16,550 63 315 2496
2019-08-11 18:14:58 GMT 48.888245 9.458947 16,300 63 315 2752
2019-08-11 18:14:55 GMT 48.885681 9.451341 16,000 63 315 3136
2019-08-11 18:14:51 GMT 48.883255 9.444087 15,975 63 315 3328
2019-08-11 18:14:48 GMT 48.881477 9.438701 15,875 63 315 3456
2019-08-11 18:14:44 GMT 48.878963 9.431040 15,525 63 317 3264
2019-08-11 18:14:41 GMT 48.876266 9.423017 15,400 63 319 2816
2019-08-11 18:14:38 GMT 48.874683 9.418174 13,975 63 318 3392
2019-08-11 18:14:33 GMT 48.871189 9.407694 15,025 63 319 2752
2019-08-11 18:14:30 GMT 48.869328 9.402129 14,725 63 318 2752
2019-08-11 18:14:27 GMT 48.867744 9.397358 14,725 63 318 2752
2019-08-11 18:14:24 GMT 48.865047 9.389191 14,600 63 318 3072
2019-08-11 18:14:20 GMT 48.863068 9.383310 14,450 63 318 3264
2019-08-11 18:14:15 GMT 48.859554 9.372783 13,500 63 319 3840
2019-08-11 18:14:11 GMT 48.855923 9.362086 13,775 62 322 3776
2019-08-11 18:14:07 GMT 48.853958 9.356196 13,225 62 321 1472
2019-08-11 18:14:01 GMT 48.849792 9.344083 13,350 62 324 2048
2019-08-11 18:13:57 GMT 48.847275 9.336900 13,050 61 311 1984
2019-08-11 18:13:54 GMT 48.845123 9.330790 13,225 61 319 1152
2019-08-11 18:13:51 GMT 48.843109 9.325069 11,375 63 308 3200
2019-08-11 18:13:48 GMT 48.840698 9.318430 12,925 62 309 2176
2019-08-11 18:13:45 GMT 48.839069 9.313732 12,925 63 308 2176
2019-08-11 18:13:41 GMT 48.836472 9.305631 12,725 65 306 2432
2019-08-11 18:13:38 GMT 48.834087 9.297686 12,575 66 304 2752
2019-08-11 18:13:35 GMT 48.832993 9.293941 12,475 65 305 3008
2019-08-11 18:13:31 GMT 48.830971 9.287278 12,225 64 305 3264
2019-08-11 18:13:28 GMT 48.828827 9.280556 12,100 63 305 3456
2019-08-11 18:13:25 GMT 48.826630 9.273869 11,900 63 306 3584
2019-08-11 18:13:20 GMT 48.822830 9.262601 11,575 63 308 3136
2019-08-11 18:13:16 GMT 48.821102 9.257355 11,425 63 309 3072
2019-08-11 18:13:13 GMT 48.819443 9.252460 11,300 63 308 3008
2019-08-11 18:13:09 GMT 48.813095 9.233503 10,975 63 307 2816
2019-08-11 18:13:04 GMT 48.813095 9.233503 8,550 63 286 2688
2019-08-11 18:12:59 GMT 48.808022 9.218252 10,475 63 301 3264
2019-08-11 18:12:56 GMT 48.808022 9.218252 10,375 63 302 3008
2019-08-11 18:12:52 GMT 48.805923 9.212108 10,325 63 301 3264
2019-08-11 18:12:49 GMT 48.801315 9.198233 10,000 63 301 3264
2019-08-11 18:12:41 GMT 48.795685 9.181462 9,550 63 300 3136
2019-08-11 18:12:37 GMT 48.795685 9.181462 9,450 63 300 3136
2019-08-11 18:12:33 GMT 48.792889 9.173150 9,000 63 299 3008
2019-08-11 18:12:29 GMT 48.790283 9.165344 9,025 63 297 2880
2019-08-11 18:12:25 GMT 48.788795 9.160935 8,900 63 296 2816
2019-08-11 18:12:22 GMT 48.786282 9.153418 8,725 63 294 2752
2019-08-11 18:12:18 GMT 48.784416 9.147853 8,100 63 284 2688
2019-08-11 18:12:12 GMT 48.778133 9.128988 8,275 63 286 2560
2019-08-11 18:12:08 GMT 48.778133 9.128988 8,175 63 285 2688
2019-08-11 18:12:04 GMT 48.776093 9.122807 7,950 63 286 3072
2019-08-11 18:12:01 GMT 48.774170 9.116962 7,825 63 285 2624
2019-08-11 18:11:57 GMT 48.771709 9.109473 7,650 63 284 2752
2019-08-11 18:11:54 GMT 48.768127 9.098511 7,350 63 284 2624
2019-08-11 18:11:50 GMT 48.768127 9.098511 7,375 63 283 2304
2019-08-11 18:11:45 GMT 48.764912 9.088801 7,225 63 281 2368
2019-08-11 18:11:40 GMT 48.761810 9.080271 7,000 58 279 2176
2019-08-11 18:11:34 GMT 48.756905 9.070226 6,775 48 277 1920
2019-08-11 18:11:30 GMT 48.753387 9.065059 6,650 38 275 1984
2019-08-11 18:11:26 GMT 48.741821 9.054830 6,400 25 271 1984
2019-08-11 18:11:20 GMT 48.741821 9.054830 6,275 20 270 2176
2019-08-11 18:11:14 GMT 48.734653 9.051795 6,150 343 256 2112
2019-08-11 18:11:09 GMT 48.729538 9.050974 5,925 1 265 2176
2019-08-11 18:10:59 GMT 48.717453 9.053298 5,575 343 259 2176
2019-08-11 18:10:49 GMT 48.705185 9.059284 5,200 342 252 1856
2019-08-11 18:10:40 GMT 48.696758 9.063648 5,000 254 186 576
2019-08-11 18:10:36 GMT 48.692780 9.066326 4,875 336 243 1536
2019-08-11 18:10:27 GMT 48.684330 9.073912 4,600 323 233 1984
2019-08-11 18:10:17 GMT 48.675888 9.084426 4,300 315 225 1216
2019-08-11 18:10:06 GMT 48.669853 9.099065 4,175 289 212 448
2019-08-11 18:09:55 GMT 48.669388 9.114075 4,075 259 195 576
2019-08-11 18:09:46 GMT 48.671585 9.126117 4,000 254 175 768
2019-08-11 18:09:35 GMT 48.673950 9.138384 3,800 254 166 1664
2019-08-11 18:09:25 GMT 48.676136 9.149877 3,475 254 162 1920
2019-08-11 18:09:13 GMT 48.678604 9.162381 3,125 254 158 1536
2019-08-11 18:09:03 GMT 48.680466 9.172175 2,950 255 149 1088
2019-08-11 18:08:53 GMT 48.682251 9.181965 2,750 255 142 1408
2019-08-11 18:08:44 GMT 48.684006 9.191509 2,475 255 134 1792
2019-08-11 18:08:33 GMT 48.685726 9.200833 2,075 254 136 2112
2019-08-11 18:08:22 GMT 48.687653 9.210487 1,650 254 137 2816
2019-08-11 18:08:11 GMT 48.689667 9.220839 1,175 254 147 1472
2019-08-11 18:08:01 GMT 48.691544 9.230840 1,125 255 119 128
2019-08-11 18:07:50 GMT 48.692898 9.237912 1,100 255 85 64
2019-08-11 18:07:41 GMT 48.693684 9.242002 0 255 39
2019-08-11 18:07:29 GMT 48.693913 9.243252 0 250 3
2019-08-11 18:07:16 GMT 48.693981 9.243481 0 216 3
2019-08-11 18:07:09 GMT 48.694073 9.243550 0 174 4
2019-08-11 18:07:00 GMT 48.694347 9.243446 0 163 11
2019-08-11 18:06:48 GMT 48.694897 9.243206 0 165 13
2019-08-11 18:06:37 GMT 48.695549 9.242845 0 140 14
2019-08-11 18:06:28 GMT 48.695946 9.241996 0 115 19
2019-08-11 18:06:18 GMT 48.696060 9.240839 0 75 17
2019-08-11 18:06:08 GMT 48.695858 9.239678 0 73 16
2019-08-11 18:05:57 GMT 48.695641 9.238604 0 73 16
2019-08-11 18:05:46 GMT 48.695435 9.237478 0 73 17
2019-08-11 18:05:35 GMT 48.695202 9.236231 0 73 16
2019-08-11 18:05:26 GMT 48.694988 9.235100 0 73 18
2019-08-11 18:05:15 GMT 48.694759 9.233921 0 73 19
2019-08-11 18:05:04 GMT 48.694485 9.232477 0 73 19
2019-08-11 18:04:53 GMT 48.694260 9.231280 0 73 18
2019-08-11 18:04:44 GMT 48.694023 9.230052 0 73 19
2019-08-11 18:04:32 GMT 48.693756 9.228606 0 73 22
2019-08-11 18:04:23 GMT 48.693466 9.227142 0 73 22
2019-08-11 18:04:12 GMT 48.693199 9.225624 0 73 22
2019-08-11 18:04:01 GMT 48.692909 9.224034 0 73 22
2019-08-11 18:03:49 GMT 48.692558 9.222282 0 73 24
2019-08-11 18:03:41 GMT 48.692299 9.220910 0 73 24
2019-08-11 18:03:29 GMT 48.691967 9.219167 0 73 24
2019-08-11 18:03:19 GMT 48.691662 9.217584 0 73 24
2019-08-11 18:02:42 GMT 48.690639 9.212195 0 73 19
2019-08-11 18:02:26 GMT 48.690273 9.210293 0 73 19
2019-08-11 18:02:17 GMT 48.690033 9.209019 0 73 19
2019-08-11 18:02:04 GMT 48.689754 9.207555 0 73 17
2019-08-11 18:01:53 GMT 48.689655 9.206385 0 112 14
2019-08-11 18:01:44 GMT 48.689926 9.205784 0 135 12
2019-08-11 18:01:01 GMT 48.690254 9.202369 0 73 14
2019-08-11 18:00:49 GMT 48.690056 9.201349 0 73 13
2019-08-11 18:00:41 GMT 48.689941 9.200743 0 70 13
2019-08-11 18:00:31 GMT 48.689632 9.199888 0 56 13
2019-08-11 18:00:21 GMT 48.689346 9.199201 0 59 12
2019-08-11 18:00:08 GMT 48.689018 9.198394 0 59 9
2019-08-11 17:59:59 GMT 48.688881 9.197996 0 64 8
2019-08-11 17:59:50 GMT 48.688751 9.197454 0 75 13
2019-08-11 17:59:39 GMT 48.688625 9.196613 0 84 11
2019-08-11 17:59:29 GMT 48.688648 9.195856 0 95 10
2019-08-11 17:59:18 GMT 48.688614 9.195123 0 73 12
2019-08-11 17:59:08 GMT 48.688488 9.194430 0 73 9
2019-08-11 17:58:55 GMT 48.688381 9.193894 0 73 5
2019-08-11 17:56:14 GMT 48.688351 9.193690 0 73 3
2019-08-11 17:56:09 GMT 48.688358 9.193768 0 75 3
2019-08-11 17:55:58 GMT 48.688381 9.193967 0 78 3
2019-08-11 17:55:47 GMT 48.688431 9.194148 0 61 3
2019-08-11 17:55:38 GMT 48.688488 9.194236 0 42 3
2019-08-11 17:55:27 GMT 48.688591 9.194346 0 36 3

Making use of Plane Finder data

You are free to use the raw flight data, aircraft information and images provided in this report for your own purposes provided the data is correctly attributed to Plane Finder. We ask that you please credit Plane Finder and link to planefinder.net in close proximity to the content.

Optionally one of the following logos (no smaller then 150x24px) can be used and must link to planefinder.net

Embedding the Plane Finder map

You are welcome to embed the Plane Finder playback map on your website to offer visitors a more interactive experience. We suggest using the following HTML code:

<iframe src="//planefinder.net/data/report/LO374-SP-LNF-7700-squawk-2019-08-11/map" width="800" height="600" seamless="seamless"></iframe>

Where our data comes from

Plane Finder has a global network of data feeds and antenna radars that receive data broadcast directly from aircraft. The primary technologies used are ADS-B and MLAT. We also show feeds from the FAA and a FLARM glider feed.

Click here to find out more about the Plane Finder network.

How we collect our data